<?xml version="1.0" encoding="UTF-8" standalone="no" ?>
<gpx xmlns="http://www.topografix.com/GPX/1/1" xmlns:xsi="http://www.w3.org/2001/XMLSchema-instance" xsi:schemaLocation="http://www.topografix.com/GPX/1/1 http://www.topografix.com/GPX/1/1/gpx.xsd" version="1.1" creator="VisuGPX - https://www.visugpx.com">
  <metadata>
    <name>100KM</name>
    <desc><![CDATA[GERS NORD rando pedestre]]></desc>
  </metadata>
  <trk>
    <name><![CDATA[Walking 2/26/15 9:00 pm]]></name>
    <trkseg>
      <trkpt lat="43.82513" lon="0.58328">
        <ele>169.2</ele>
        <time>2015-02-26T20:00:00Z</time>
      </trkpt>
      <trkpt lat="43.82528" lon="0.58334">
        <ele>169</ele>
        <time>2015-02-26T20:00:14Z</time>
      </trkpt>
      <trkpt lat="43.8253" lon="0.58324">
        <ele>168.9</ele>
        <time>2015-02-26T20:00:22Z</time>
      </trkpt>
      <trkpt lat="43.82538" lon="0.58285">
        <ele>168.8</ele>
        <time>2015-02-26T20:00:49Z</time>
      </trkpt>
      <trkpt lat="43.82543" lon="0.58246">
        <ele>168.7</ele>
        <time>2015-02-26T20:01:16Z</time>
      </trkpt>
      <trkpt lat="43.82544" lon="0.58209">
        <ele>167.8</ele>
        <time>2015-02-26T20:01:42Z</time>
      </trkpt>
      <trkpt lat="43.82544" lon="0.58191">
        <ele>165.6</ele>
        <time>2015-02-26T20:01:54Z</time>
      </trkpt>
      <trkpt lat="43.82547" lon="0.58179">
        <ele>163.2</ele>
        <time>2015-02-26T20:02:03Z</time>
      </trkpt>
      <trkpt lat="43.8255" lon="0.58184">
        <ele>159.8</ele>
        <time>2015-02-26T20:02:07Z</time>
      </trkpt>
      <trkpt lat="43.82549" lon="0.58185">
        <ele>154.9</ele>
        <time>2015-02-26T20:02:09Z</time>
      </trkpt>
      <trkpt lat="43.82422" lon="0.57406">
        <ele>151.5</ele>
        <time>2015-02-26T20:11:17Z</time>
      </trkpt>
      <trkpt lat="43.82691" lon="0.56835">
        <ele>149.5</ele>
        <time>2015-02-26T20:19:05Z</time>
      </trkpt>
      <trkpt lat="43.82761" lon="0.56861">
        <ele>148.9</ele>
        <time>2015-02-26T20:20:14Z</time>
      </trkpt>
      <trkpt lat="43.83038" lon="0.56569">
        <ele>148.4</ele>
        <time>2015-02-26T20:25:45Z</time>
      </trkpt>
      <trkpt lat="43.83547" lon="0.56335">
        <ele>148.4</ele>
        <time>2015-02-26T20:34:16Z</time>
      </trkpt>
      <trkpt lat="43.83677" lon="0.56045">
        <ele>148.5</ele>
        <time>2015-02-26T20:38:10Z</time>
      </trkpt>
      <trkpt lat="43.83802" lon="0.55453">
        <ele>149.1</ele>
        <time>2015-02-26T20:45:14Z</time>
      </trkpt>
      <trkpt lat="43.83976" lon="0.54545">
        <ele>151.1</ele>
        <time>2015-02-26T20:55:58Z</time>
      </trkpt>
      <trkpt lat="43.83946" lon="0.54331">
        <ele>154.3</ele>
        <time>2015-02-26T20:58:28Z</time>
      </trkpt>
      <trkpt lat="43.84002" lon="0.53975">
        <ele>159.2</ele>
        <time>2015-02-26T21:02:39Z</time>
      </trkpt>
      <trkpt lat="43.84123" lon="0.53732">
        <ele>166</ele>
        <time>2015-02-26T21:06:01Z</time>
      </trkpt>
      <trkpt lat="43.84411" lon="0.53612">
        <ele>172.5</ele>
        <time>2015-02-26T21:10:47Z</time>
      </trkpt>
      <trkpt lat="43.84541" lon="0.53644">
        <ele>177.9</ele>
        <time>2015-02-26T21:12:53Z</time>
      </trkpt>
      <trkpt lat="43.84747" lon="0.53372">
        <ele>181.5</ele>
        <time>2015-02-26T21:17:24Z</time>
      </trkpt>
      <trkpt lat="43.84838" lon="0.53303">
        <ele>186</ele>
        <time>2015-02-26T21:19:03Z</time>
      </trkpt>
      <trkpt lat="43.84943" lon="0.53159">
        <ele>189.5</ele>
        <time>2015-02-26T21:21:23Z</time>
      </trkpt>
      <trkpt lat="43.85154" lon="0.53112">
        <ele>192.4</ele>
        <time>2015-02-26T21:24:46Z</time>
      </trkpt>
      <trkpt lat="43.85178" lon="0.53151">
        <ele>195.9</ele>
        <time>2015-02-26T21:25:22Z</time>
      </trkpt>
      <trkpt lat="43.85288" lon="0.52936">
        <ele>200.3</ele>
        <time>2015-02-26T21:28:22Z</time>
      </trkpt>
      <trkpt lat="43.85319" lon="0.52784">
        <ele>203.1</ele>
        <time>2015-02-26T21:30:11Z</time>
      </trkpt>
      <trkpt lat="43.85412" lon="0.52638">
        <ele>205.1</ele>
        <time>2015-02-26T21:32:24Z</time>
      </trkpt>
      <trkpt lat="43.85468" lon="0.52402">
        <ele>206.6</ele>
        <time>2015-02-26T21:35:15Z</time>
      </trkpt>
      <trkpt lat="43.85622" lon="0.52241">
        <ele>207</ele>
        <time>2015-02-26T21:38:19Z</time>
      </trkpt>
      <trkpt lat="43.85707" lon="0.52114">
        <ele>207.2</ele>
        <time>2015-02-26T21:40:18Z</time>
      </trkpt>
      <trkpt lat="43.8589" lon="0.52039">
        <ele>207.8</ele>
        <time>2015-02-26T21:43:19Z</time>
      </trkpt>
      <trkpt lat="43.85891" lon="0.52034">
        <ele>207.5</ele>
        <time>2015-02-26T21:43:23Z</time>
      </trkpt>
      <trkpt lat="43.85897" lon="0.52038">
        <ele>208.4</ele>
        <time>2015-02-26T21:43:29Z</time>
      </trkpt>
      <trkpt lat="43.85914" lon="0.52036">
        <ele>209.6</ele>
        <time>2015-02-26T21:43:45Z</time>
      </trkpt>
      <trkpt lat="43.85929" lon="0.52034">
        <ele>210.3</ele>
        <time>2015-02-26T21:43:59Z</time>
      </trkpt>
      <trkpt lat="43.85941" lon="0.52031">
        <ele>210.9</ele>
        <time>2015-02-26T21:44:11Z</time>
      </trkpt>
      <trkpt lat="43.85962" lon="0.52014">
        <ele>212.7</ele>
        <time>2015-02-26T21:44:34Z</time>
      </trkpt>
      <trkpt lat="43.85967" lon="0.52009">
        <ele>214.5</ele>
        <time>2015-02-26T21:44:40Z</time>
      </trkpt>
      <trkpt lat="43.86002" lon="0.51973">
        <ele>216.4</ele>
        <time>2015-02-26T21:45:21Z</time>
      </trkpt>
      <trkpt lat="43.86017" lon="0.51962">
        <ele>218.2</ele>
        <time>2015-02-26T21:45:37Z</time>
      </trkpt>
      <trkpt lat="43.86089" lon="0.51908">
        <ele>219.4</ele>
        <time>2015-02-26T21:46:55Z</time>
      </trkpt>
      <trkpt lat="43.86209" lon="0.51822">
        <ele>218.8</ele>
        <time>2015-02-26T21:49:04Z</time>
      </trkpt>
      <trkpt lat="43.86238" lon="0.51802">
        <ele>216.8</ele>
        <time>2015-02-26T21:49:35Z</time>
      </trkpt>
      <trkpt lat="43.86248" lon="0.51797">
        <ele>214</ele>
        <time>2015-02-26T21:49:45Z</time>
      </trkpt>
      <trkpt lat="43.86247" lon="0.51795">
        <ele>212.2</ele>
        <time>2015-02-26T21:49:46Z</time>
      </trkpt>
      <trkpt lat="43.86343" lon="0.51771">
        <ele>212</ele>
        <time>2015-02-26T21:51:19Z</time>
      </trkpt>
      <trkpt lat="43.86387" lon="0.51698">
        <ele>210.7</ele>
        <time>2015-02-26T21:52:24Z</time>
      </trkpt>
      <trkpt lat="43.86473" lon="0.51773">
        <ele>209.9</ele>
        <time>2015-02-26T21:54:01Z</time>
      </trkpt>
      <trkpt lat="43.86569" lon="0.5178">
        <ele>209.1</ele>
        <time>2015-02-26T21:55:33Z</time>
      </trkpt>
      <trkpt lat="43.86682" lon="0.51822">
        <ele>208.5</ele>
        <time>2015-02-26T21:57:24Z</time>
      </trkpt>
      <trkpt lat="43.86968" lon="0.51775">
        <ele>208.8</ele>
        <time>2015-02-26T22:01:59Z</time>
      </trkpt>
      <trkpt lat="43.87029" lon="0.51801">
        <ele>209.5</ele>
        <time>2015-02-26T22:02:59Z</time>
      </trkpt>
      <trkpt lat="43.87135" lon="0.51782">
        <ele>208.3</ele>
        <time>2015-02-26T22:04:41Z</time>
      </trkpt>
      <trkpt lat="43.87186" lon="0.51771">
        <ele>207.8</ele>
        <time>2015-02-26T22:05:30Z</time>
      </trkpt>
      <trkpt lat="43.87237" lon="0.5173">
        <ele>207.5</ele>
        <time>2015-02-26T22:06:26Z</time>
      </trkpt>
      <trkpt lat="43.87306" lon="0.51698">
        <ele>206.5</ele>
        <time>2015-02-26T22:07:35Z</time>
      </trkpt>
      <trkpt lat="43.87397" lon="0.51698">
        <ele>203.8</ele>
        <time>2015-02-26T22:09:02Z</time>
      </trkpt>
      <trkpt lat="43.8763" lon="0.51595">
        <ele>200.4</ele>
        <time>2015-02-26T22:12:55Z</time>
      </trkpt>
      <trkpt lat="43.87777" lon="0.51485">
        <ele>195.4</ele>
        <time>2015-02-26T22:15:34Z</time>
      </trkpt>
      <trkpt lat="43.87998" lon="0.51391">
        <ele>189.8</ele>
        <time>2015-02-26T22:19:14Z</time>
      </trkpt>
      <trkpt lat="43.88045" lon="0.51406">
        <ele>184.4</ele>
        <time>2015-02-26T22:19:59Z</time>
      </trkpt>
      <trkpt lat="43.882" lon="0.51361">
        <ele>179.1</ele>
        <time>2015-02-26T22:22:30Z</time>
      </trkpt>
      <trkpt lat="43.88306" lon="0.51436">
        <ele>175.9</ele>
        <time>2015-02-26T22:24:24Z</time>
      </trkpt>
      <trkpt lat="43.88521" lon="0.5134">
        <ele>177.1</ele>
        <time>2015-02-26T22:27:59Z</time>
      </trkpt>
      <trkpt lat="43.8862" lon="0.51114">
        <ele>180.2</ele>
        <time>2015-02-26T22:31:00Z</time>
      </trkpt>
      <trkpt lat="43.88646" lon="0.51003">
        <ele>183.9</ele>
        <time>2015-02-26T22:32:20Z</time>
      </trkpt>
      <trkpt lat="43.8877" lon="0.50857">
        <ele>187.7</ele>
        <time>2015-02-26T22:34:55Z</time>
      </trkpt>
      <trkpt lat="43.88899" lon="0.50745">
        <ele>192.4</ele>
        <time>2015-02-26T22:37:19Z</time>
      </trkpt>
      <trkpt lat="43.88965" lon="0.5064">
        <ele>197.1</ele>
        <time>2015-02-26T22:38:55Z</time>
      </trkpt>
      <trkpt lat="43.89045" lon="0.50571">
        <ele>202.6</ele>
        <time>2015-02-26T22:40:25Z</time>
      </trkpt>
      <trkpt lat="43.89061" lon="0.50524">
        <ele>208.4</ele>
        <time>2015-02-26T22:41:00Z</time>
      </trkpt>
      <trkpt lat="43.89053" lon="0.50419">
        <ele>213</ele>
        <time>2015-02-26T22:42:13Z</time>
      </trkpt>
      <trkpt lat="43.89133" lon="0.50206">
        <ele>213.1</ele>
        <time>2015-02-26T22:44:58Z</time>
      </trkpt>
      <trkpt lat="43.89103" lon="0.50175">
        <ele>209.4</ele>
        <time>2015-02-26T22:45:33Z</time>
      </trkpt>
      <trkpt lat="43.89139" lon="0.5012">
        <ele>204.3</ele>
        <time>2015-02-26T22:46:25Z</time>
      </trkpt>
      <trkpt lat="43.89284" lon="0.50129">
        <ele>199.4</ele>
        <time>2015-02-26T22:48:43Z</time>
      </trkpt>
      <trkpt lat="43.89367" lon="0.50117">
        <ele>194.3</ele>
        <time>2015-02-26T22:50:02Z</time>
      </trkpt>
      <trkpt lat="43.89732" lon="0.49548">
        <ele>188.7</ele>
        <time>2015-02-26T22:58:45Z</time>
      </trkpt>
      <trkpt lat="43.90077" lon="0.49069">
        <ele>183.2</ele>
        <time>2015-02-26T23:06:29Z</time>
      </trkpt>
      <trkpt lat="43.90166" lon="0.49138">
        <ele>177.3</ele>
        <time>2015-02-26T23:08:06Z</time>
      </trkpt>
      <trkpt lat="43.90377" lon="0.49224">
        <ele>169.9</ele>
        <time>2015-02-26T23:11:35Z</time>
      </trkpt>
      <trkpt lat="43.90361" lon="0.49391">
        <ele>162.6</ele>
        <time>2015-02-26T23:13:31Z</time>
      </trkpt>
      <trkpt lat="43.90392" lon="0.49447">
        <ele>155.9</ele>
        <time>2015-02-26T23:14:19Z</time>
      </trkpt>
      <trkpt lat="43.90525" lon="0.49481">
        <ele>152.7</ele>
        <time>2015-02-26T23:16:28Z</time>
      </trkpt>
      <trkpt lat="43.90504" lon="0.49263">
        <ele>151.3</ele>
        <time>2015-02-26T23:18:59Z</time>
      </trkpt>
      <trkpt lat="43.90612" lon="0.48756">
        <ele>151.9</ele>
        <time>2015-02-26T23:25:01Z</time>
      </trkpt>
      <trkpt lat="43.90587" lon="0.48567">
        <ele>152</ele>
        <time>2015-02-26T23:27:13Z</time>
      </trkpt>
      <trkpt lat="43.90652" lon="0.48323">
        <ele>151</ele>
        <time>2015-02-26T23:30:12Z</time>
      </trkpt>
      <trkpt lat="43.90652" lon="0.4822">
        <ele>150.8</ele>
        <time>2015-02-26T23:31:22Z</time>
      </trkpt>
      <trkpt lat="43.90964" lon="0.48027">
        <ele>150.9</ele>
        <time>2015-02-26T23:36:48Z</time>
      </trkpt>
      <trkpt lat="43.90986" lon="0.47683">
        <ele>150.1</ele>
        <time>2015-02-26T23:40:44Z</time>
      </trkpt>
      <trkpt lat="43.91307" lon="0.47379">
        <ele>150.4</ele>
        <time>2015-02-26T23:46:55Z</time>
      </trkpt>
      <trkpt lat="43.91431" lon="0.47048">
        <ele>150.8</ele>
        <time>2015-02-26T23:51:10Z</time>
      </trkpt>
      <trkpt lat="43.91629" lon="0.47061">
        <ele>151</ele>
        <time>2015-02-26T23:54:19Z</time>
      </trkpt>
      <trkpt lat="43.91941" lon="0.46503">
        <ele>149.7</ele>
        <time>2015-02-27T00:02:23Z</time>
      </trkpt>
      <trkpt lat="43.9226" lon="0.46662">
        <ele>148.9</ele>
        <time>2015-02-27T00:07:45Z</time>
      </trkpt>
      <trkpt lat="43.92284" lon="0.46589">
        <ele>148.6</ele>
        <time>2015-02-27T00:08:40Z</time>
      </trkpt>
      <trkpt lat="43.92371" lon="0.46731">
        <ele>148.2</ele>
        <time>2015-02-27T00:10:48Z</time>
      </trkpt>
      <trkpt lat="43.92445" lon="0.46713">
        <ele>148.3</ele>
        <time>2015-02-27T00:11:59Z</time>
      </trkpt>
      <trkpt lat="43.92575" lon="0.46911">
        <ele>147.1</ele>
        <time>2015-02-27T00:15:03Z</time>
      </trkpt>
      <trkpt lat="43.92569" lon="0.46979">
        <ele>144.9</ele>
        <time>2015-02-27T00:15:50Z</time>
      </trkpt>
      <trkpt lat="43.92757" lon="0.47211">
        <ele>144.8</ele>
        <time>2015-02-27T00:19:50Z</time>
      </trkpt>
      <trkpt lat="43.92754" lon="0.4725">
        <ele>146.2</ele>
        <time>2015-02-27T00:20:16Z</time>
      </trkpt>
      <trkpt lat="43.93085" lon="0.47254">
        <ele>148.4</ele>
        <time>2015-02-27T00:25:31Z</time>
      </trkpt>
      <trkpt lat="43.93165" lon="0.47336">
        <ele>151.1</ele>
        <time>2015-02-27T00:27:06Z</time>
      </trkpt>
      <trkpt lat="43.9323" lon="0.47233">
        <ele>155.3</ele>
        <time>2015-02-27T00:28:40Z</time>
      </trkpt>
      <trkpt lat="43.93258" lon="0.47323">
        <ele>157.5</ele>
        <time>2015-02-27T00:29:47Z</time>
      </trkpt>
      <trkpt lat="43.93434" lon="0.47499">
        <ele>157.5</ele>
        <time>2015-02-27T00:33:14Z</time>
      </trkpt>
      <trkpt lat="43.93443" lon="0.47593">
        <ele>156.5</ele>
        <time>2015-02-27T00:34:19Z</time>
      </trkpt>
      <trkpt lat="43.93508" lon="0.47632">
        <ele>154.5</ele>
        <time>2015-02-27T00:35:26Z</time>
      </trkpt>
      <trkpt lat="43.9353" lon="0.47683">
        <ele>152</ele>
        <time>2015-02-27T00:36:07Z</time>
      </trkpt>
      <trkpt lat="43.93635" lon="0.47679">
        <ele>149.5</ele>
        <time>2015-02-27T00:37:47Z</time>
      </trkpt>
      <trkpt lat="43.937" lon="0.47627">
        <ele>148</ele>
        <time>2015-02-27T00:38:58Z</time>
      </trkpt>
      <trkpt lat="43.93749" lon="0.47632">
        <ele>145.1</ele>
        <time>2015-02-27T00:39:45Z</time>
      </trkpt>
      <trkpt lat="43.93746" lon="0.47331">
        <ele>143.1</ele>
        <time>2015-02-27T00:43:11Z</time>
      </trkpt>
      <trkpt lat="43.93882" lon="0.47087">
        <ele>141.2</ele>
        <time>2015-02-27T00:46:43Z</time>
      </trkpt>
      <trkpt lat="43.9387" lon="0.46992">
        <ele>139.8</ele>
        <time>2015-02-27T00:47:49Z</time>
      </trkpt>
      <trkpt lat="43.94052" lon="0.46709">
        <ele>139.3</ele>
        <time>2015-02-27T00:52:09Z</time>
      </trkpt>
      <trkpt lat="43.94077" lon="0.46709">
        <ele>139.4</ele>
        <time>2015-02-27T00:52:33Z</time>
      </trkpt>
      <trkpt lat="43.94241" lon="0.46237">
        <ele>140.3</ele>
        <time>2015-02-27T00:58:32Z</time>
      </trkpt>
      <trkpt lat="43.94293" lon="0.46181">
        <ele>141.2</ele>
        <time>2015-02-27T00:59:35Z</time>
      </trkpt>
      <trkpt lat="43.94411" lon="0.46181">
        <ele>142.8</ele>
        <time>2015-02-27T01:01:27Z</time>
      </trkpt>
      <trkpt lat="43.94642" lon="0.46349">
        <ele>145.8</ele>
        <time>2015-02-27T01:05:35Z</time>
      </trkpt>
      <trkpt lat="43.94701" lon="0.45928">
        <ele>147.8</ele>
        <time>2015-02-27T01:10:29Z</time>
      </trkpt>
      <trkpt lat="43.94692" lon="0.4549">
        <ele>150.9</ele>
        <time>2015-02-27T01:15:29Z</time>
      </trkpt>
      <trkpt lat="43.94726" lon="0.45473">
        <ele>151.9</ele>
        <time>2015-02-27T01:16:03Z</time>
      </trkpt>
      <trkpt lat="43.94741" lon="0.4522">
        <ele>153.4</ele>
        <time>2015-02-27T01:18:57Z</time>
      </trkpt>
      <trkpt lat="43.94778" lon="0.45117">
        <ele>154.3</ele>
        <time>2015-02-27T01:20:16Z</time>
      </trkpt>
      <trkpt lat="43.9484" lon="0.45083">
        <ele>156.2</ele>
        <time>2015-02-27T01:21:20Z</time>
      </trkpt>
      <trkpt lat="43.94948" lon="0.44868">
        <ele>157.8</ele>
        <time>2015-02-27T01:24:19Z</time>
      </trkpt>
      <trkpt lat="43.9501" lon="0.44666">
        <ele>159.7</ele>
        <time>2015-02-27T01:26:49Z</time>
      </trkpt>
      <trkpt lat="43.95152" lon="0.44748">
        <ele>162.5</ele>
        <time>2015-02-27T01:29:16Z</time>
      </trkpt>
      <trkpt lat="43.95151" lon="0.44749">
        <ele>165.8</ele>
        <time>2015-02-27T01:29:17Z</time>
      </trkpt>
      <trkpt lat="43.95163" lon="0.44754">
        <ele>167.9</ele>
        <time>2015-02-27T01:29:29Z</time>
      </trkpt>
      <trkpt lat="43.95278" lon="0.4478">
        <ele>170.1</ele>
        <time>2015-02-27T01:31:19Z</time>
      </trkpt>
      <trkpt lat="43.95317" lon="0.44787">
        <ele>171</ele>
        <time>2015-02-27T01:31:57Z</time>
      </trkpt>
      <trkpt lat="43.95341" lon="0.44788">
        <ele>172.4</ele>
        <time>2015-02-27T01:32:19Z</time>
      </trkpt>
      <trkpt lat="43.95354" lon="0.44784">
        <ele>173.5</ele>
        <time>2015-02-27T01:32:33Z</time>
      </trkpt>
      <trkpt lat="43.95364" lon="0.44771">
        <ele>174.7</ele>
        <time>2015-02-27T01:32:46Z</time>
      </trkpt>
      <trkpt lat="43.95367" lon="0.44742">
        <ele>175.7</ele>
        <time>2015-02-27T01:33:06Z</time>
      </trkpt>
      <trkpt lat="43.95373" lon="0.44699">
        <ele>176.3</ele>
        <time>2015-02-27T01:33:36Z</time>
      </trkpt>
      <trkpt lat="43.95377" lon="0.44662">
        <ele>176.2</ele>
        <time>2015-02-27T01:34:02Z</time>
      </trkpt>
      <trkpt lat="43.95383" lon="0.44638">
        <ele>176.1</ele>
        <time>2015-02-27T01:34:19Z</time>
      </trkpt>
      <trkpt lat="43.95392" lon="0.4462">
        <ele>176</ele>
        <time>2015-02-27T01:34:34Z</time>
      </trkpt>
      <trkpt lat="43.95463" lon="0.4454">
        <ele>175.5</ele>
        <time>2015-02-27T01:36:01Z</time>
      </trkpt>
      <trkpt lat="43.95588" lon="0.44396">
        <ele>174.9</ele>
        <time>2015-02-27T01:38:35Z</time>
      </trkpt>
      <trkpt lat="43.95654" lon="0.44317">
        <ele>174.4</ele>
        <time>2015-02-27T01:39:58Z</time>
      </trkpt>
      <trkpt lat="43.95674" lon="0.44286">
        <ele>173.8</ele>
        <time>2015-02-27T01:40:27Z</time>
      </trkpt>
      <trkpt lat="43.95689" lon="0.44265">
        <ele>172.7</ele>
        <time>2015-02-27T01:40:47Z</time>
      </trkpt>
      <trkpt lat="43.95711" lon="0.44247">
        <ele>171.6</ele>
        <time>2015-02-27T01:41:11Z</time>
      </trkpt>
      <trkpt lat="43.95797" lon="0.44178">
        <ele>170.5</ele>
        <time>2015-02-27T01:42:46Z</time>
      </trkpt>
      <trkpt lat="43.95814" lon="0.44164">
        <ele>169.5</ele>
        <time>2015-02-27T01:43:05Z</time>
      </trkpt>
      <trkpt lat="43.9583" lon="0.44148">
        <ele>168.6</ele>
        <time>2015-02-27T01:43:23Z</time>
      </trkpt>
      <trkpt lat="43.95845" lon="0.44129">
        <ele>167.7</ele>
        <time>2015-02-27T01:43:43Z</time>
      </trkpt>
      <trkpt lat="43.9586" lon="0.44112">
        <ele>166.8</ele>
        <time>2015-02-27T01:44:01Z</time>
      </trkpt>
      <trkpt lat="43.95885" lon="0.44096">
        <ele>166.4</ele>
        <time>2015-02-27T01:44:27Z</time>
      </trkpt>
      <trkpt lat="43.95909" lon="0.44082">
        <ele>164.5</ele>
        <time>2015-02-27T01:44:52Z</time>
      </trkpt>
      <trkpt lat="43.9592" lon="0.44076">
        <ele>161.1</ele>
        <time>2015-02-27T01:45:04Z</time>
      </trkpt>
      <trkpt lat="43.95929" lon="0.44069">
        <ele>157.6</ele>
        <time>2015-02-27T01:45:13Z</time>
      </trkpt>
      <trkpt lat="43.95929" lon="0.44065">
        <ele>153.9</ele>
        <time>2015-02-27T01:45:16Z</time>
      </trkpt>
      <trkpt lat="43.95928" lon="0.44065">
        <ele>150.8</ele>
        <time>2015-02-27T01:45:17Z</time>
      </trkpt>
      <trkpt lat="43.95909" lon="0.43701">
        <ele>147.6</ele>
        <time>2015-02-27T01:49:28Z</time>
      </trkpt>
      <trkpt lat="43.95949" lon="0.434">
        <ele>145.6</ele>
        <time>2015-02-27T01:52:57Z</time>
      </trkpt>
      <trkpt lat="43.95816" lon="0.43392">
        <ele>142.3</ele>
        <time>2015-02-27T01:55:04Z</time>
      </trkpt>
      <trkpt lat="43.9589" lon="0.4334">
        <ele>140.1</ele>
        <time>2015-02-27T01:56:23Z</time>
      </trkpt>
      <trkpt lat="43.96082" lon="0.43199">
        <ele>137.5</ele>
        <time>2015-02-27T01:59:49Z</time>
      </trkpt>
      <trkpt lat="43.96175" lon="0.43091">
        <ele>134</ele>
        <time>2015-02-27T02:01:44Z</time>
      </trkpt>
      <trkpt lat="43.96292" lon="0.42954">
        <ele>132.3</ele>
        <time>2015-02-27T02:04:10Z</time>
      </trkpt>
      <trkpt lat="43.96403" lon="0.42834">
        <ele>131.3</ele>
        <time>2015-02-27T02:06:24Z</time>
      </trkpt>
      <trkpt lat="43.96487" lon="0.42538">
        <ele>130.7</ele>
        <time>2015-02-27T02:10:02Z</time>
      </trkpt>
      <trkpt lat="43.9636" lon="0.42096">
        <ele>131.5</ele>
        <time>2015-02-27T02:15:28Z</time>
      </trkpt>
      <trkpt lat="43.967" lon="0.42555">
        <ele>131.4</ele>
        <time>2015-02-27T02:22:59Z</time>
      </trkpt>
      <trkpt lat="43.97043" lon="0.42516">
        <ele>131</ele>
        <time>2015-02-27T02:28:27Z</time>
      </trkpt>
      <trkpt lat="43.97064" lon="0.42654">
        <ele>129.5</ele>
        <time>2015-02-27T02:30:03Z</time>
      </trkpt>
      <trkpt lat="43.97061" lon="0.42765">
        <ele>130.5</ele>
        <time>2015-02-27T02:31:19Z</time>
      </trkpt>
      <trkpt lat="43.96907" lon="0.42838">
        <ele>131</ele>
        <time>2015-02-27T02:33:55Z</time>
      </trkpt>
      <trkpt lat="43.96694" lon="0.42808">
        <ele>133.5</ele>
        <time>2015-02-27T02:37:19Z</time>
      </trkpt>
      <trkpt lat="43.96502" lon="0.4298">
        <ele>137.4</ele>
        <time>2015-02-27T02:40:56Z</time>
      </trkpt>
      <trkpt lat="43.96409" lon="0.4301">
        <ele>140.2</ele>
        <time>2015-02-27T02:42:26Z</time>
      </trkpt>
      <trkpt lat="43.96428" lon="0.43139">
        <ele>143.4</ele>
        <time>2015-02-27T02:43:56Z</time>
      </trkpt>
      <trkpt lat="43.96521" lon="0.4325">
        <ele>145.6</ele>
        <time>2015-02-27T02:45:53Z</time>
      </trkpt>
      <trkpt lat="43.96598" lon="0.43482">
        <ele>147.1</ele>
        <time>2015-02-27T02:48:48Z</time>
      </trkpt>
      <trkpt lat="43.96623" lon="0.43945">
        <ele>147.8</ele>
        <time>2015-02-27T02:54:06Z</time>
      </trkpt>
      <trkpt lat="43.96678" lon="0.44087">
        <ele>149.1</ele>
        <time>2015-02-27T02:55:57Z</time>
      </trkpt>
      <trkpt lat="43.96777" lon="0.44143">
        <ele>149.6</ele>
        <time>2015-02-27T02:57:38Z</time>
      </trkpt>
      <trkpt lat="43.96907" lon="0.44117">
        <ele>149.1</ele>
        <time>2015-02-27T02:59:43Z</time>
      </trkpt>
      <trkpt lat="43.9699" lon="0.44203">
        <ele>148.4</ele>
        <time>2015-02-27T03:01:22Z</time>
      </trkpt>
      <trkpt lat="43.97067" lon="0.44413">
        <ele>145.1</ele>
        <time>2015-02-27T03:04:03Z</time>
      </trkpt>
      <trkpt lat="43.97117" lon="0.44396">
        <ele>141.3</ele>
        <time>2015-02-27T03:04:52Z</time>
      </trkpt>
      <trkpt lat="43.97169" lon="0.44688">
        <ele>137.5</ele>
        <time>2015-02-27T03:08:18Z</time>
      </trkpt>
      <trkpt lat="43.97138" lon="0.44707">
        <ele>133.2</ele>
        <time>2015-02-27T03:08:50Z</time>
      </trkpt>
      <trkpt lat="43.97052" lon="0.44671">
        <ele>129.5</ele>
        <time>2015-02-27T03:10:16Z</time>
      </trkpt>
      <trkpt lat="43.97016" lon="0.44735">
        <ele>125.6</ele>
        <time>2015-02-27T03:11:12Z</time>
      </trkpt>
      <trkpt lat="43.96956" lon="0.44726">
        <ele>122.7</ele>
        <time>2015-02-27T03:12:09Z</time>
      </trkpt>
      <trkpt lat="43.96939" lon="0.44825">
        <ele>119.8</ele>
        <time>2015-02-27T03:13:19Z</time>
      </trkpt>
      <trkpt lat="43.96985" lon="0.4507">
        <ele>117.8</ele>
        <time>2015-02-27T03:16:12Z</time>
      </trkpt>
      <trkpt lat="43.97053" lon="0.4534">
        <ele>115.8</ele>
        <time>2015-02-27T03:19:28Z</time>
      </trkpt>
      <trkpt lat="43.97053" lon="0.45341">
        <ele>113.4</ele>
        <time>2015-02-27T03:19:29Z</time>
      </trkpt>
      <trkpt lat="43.97066" lon="0.45345">
        <ele>112</ele>
        <time>2015-02-27T03:19:41Z</time>
      </trkpt>
      <trkpt lat="43.97083" lon="0.45339">
        <ele>110.5</ele>
        <time>2015-02-27T03:19:58Z</time>
      </trkpt>
      <trkpt lat="43.97165" lon="0.45299">
        <ele>109.4</ele>
        <time>2015-02-27T03:21:21Z</time>
      </trkpt>
      <trkpt lat="43.97176" lon="0.4529">
        <ele>109.4</ele>
        <time>2015-02-27T03:21:33Z</time>
      </trkpt>
      <trkpt lat="43.97183" lon="0.45284">
        <ele>109.3</ele>
        <time>2015-02-27T03:21:40Z</time>
      </trkpt>
      <trkpt lat="43.9722" lon="0.4525">
        <ele>109.2</ele>
        <time>2015-02-27T03:22:23Z</time>
      </trkpt>
      <trkpt lat="43.97249" lon="0.45229">
        <ele>109.4</ele>
        <time>2015-02-27T03:22:54Z</time>
      </trkpt>
      <trkpt lat="43.97289" lon="0.45204">
        <ele>109.5</ele>
        <time>2015-02-27T03:23:36Z</time>
      </trkpt>
      <trkpt lat="43.97312" lon="0.45182">
        <ele>109.5</ele>
        <time>2015-02-27T03:24:02Z</time>
      </trkpt>
      <trkpt lat="43.97329" lon="0.45167">
        <ele>109.4</ele>
        <time>2015-02-27T03:24:21Z</time>
      </trkpt>
      <trkpt lat="43.9738" lon="0.45142">
        <ele>109.6</ele>
        <time>2015-02-27T03:25:13Z</time>
      </trkpt>
      <trkpt lat="43.97392" lon="0.45141">
        <ele>109.8</ele>
        <time>2015-02-27T03:25:24Z</time>
      </trkpt>
      <trkpt lat="43.97392" lon="0.45138">
        <ele>109.6</ele>
        <time>2015-02-27T03:25:26Z</time>
      </trkpt>
      <trkpt lat="43.97392" lon="0.45141">
        <ele>109.9</ele>
        <time>2015-02-27T03:25:28Z</time>
      </trkpt>
      <trkpt lat="43.97413" lon="0.45149">
        <ele>110.2</ele>
        <time>2015-02-27T03:25:48Z</time>
      </trkpt>
      <trkpt lat="43.97521" lon="0.45222">
        <ele>111.5</ele>
        <time>2015-02-27T03:27:43Z</time>
      </trkpt>
      <trkpt lat="43.97539" lon="0.4523">
        <ele>116</ele>
        <time>2015-02-27T03:28:01Z</time>
      </trkpt>
      <trkpt lat="43.97603" lon="0.45244">
        <ele>119</ele>
        <time>2015-02-27T03:29:03Z</time>
      </trkpt>
      <trkpt lat="43.976" lon="0.45248">
        <ele>123.9</ele>
        <time>2015-02-27T03:29:06Z</time>
      </trkpt>
      <trkpt lat="43.976" lon="0.45248">
        <ele>129.6</ele>
        <time>2015-02-27T03:29:06Z</time>
      </trkpt>
      <trkpt lat="43.97867" lon="0.4531">
        <ele>135.4</ele>
        <time>2015-02-27T03:33:24Z</time>
      </trkpt>
      <trkpt lat="43.98127" lon="0.45314">
        <ele>140.5</ele>
        <time>2015-02-27T03:37:31Z</time>
      </trkpt>
      <trkpt lat="43.98818" lon="0.45735">
        <ele>145.7</ele>
        <time>2015-02-27T03:49:30Z</time>
      </trkpt>
      <trkpt lat="43.98584" lon="0.46507">
        <ele>150.6</ele>
        <time>2015-02-27T03:59:04Z</time>
      </trkpt>
      <trkpt lat="43.98547" lon="0.46915">
        <ele>155.5</ele>
        <time>2015-02-27T04:03:45Z</time>
      </trkpt>
      <trkpt lat="43.98544" lon="0.46913">
        <ele>160.5</ele>
        <time>2015-02-27T04:03:48Z</time>
      </trkpt>
      <trkpt lat="43.98542" lon="0.46924">
        <ele>163.4</ele>
        <time>2015-02-27T04:03:56Z</time>
      </trkpt>
      <trkpt lat="43.98533" lon="0.46914">
        <ele>162.9</ele>
        <time>2015-02-27T04:04:07Z</time>
      </trkpt>
      <trkpt lat="43.98451" lon="0.46901">
        <ele>163.7</ele>
        <time>2015-02-27T04:05:25Z</time>
      </trkpt>
      <trkpt lat="43.98439" lon="0.46893">
        <ele>162.6</ele>
        <time>2015-02-27T04:05:38Z</time>
      </trkpt>
      <trkpt lat="43.98386" lon="0.46847">
        <ele>160.7</ele>
        <time>2015-02-27T04:06:37Z</time>
      </trkpt>
      <trkpt lat="43.98357" lon="0.46827">
        <ele>158.9</ele>
        <time>2015-02-27T04:07:08Z</time>
      </trkpt>
      <trkpt lat="43.98302" lon="0.46791">
        <ele>157.2</ele>
        <time>2015-02-27T04:08:06Z</time>
      </trkpt>
      <trkpt lat="43.98303" lon="0.46791">
        <ele>155.5</ele>
        <time>2015-02-27T04:08:07Z</time>
      </trkpt>
      <trkpt lat="43.98302" lon="0.46791">
        <ele>154.4</ele>
        <time>2015-02-27T04:08:07Z</time>
      </trkpt>
      <trkpt lat="43.98298" lon="0.46789">
        <ele>153.3</ele>
        <time>2015-02-27T04:08:11Z</time>
      </trkpt>
      <trkpt lat="43.98302" lon="0.46813">
        <ele>151.8</ele>
        <time>2015-02-27T04:08:28Z</time>
      </trkpt>
      <trkpt lat="43.98318" lon="0.46876">
        <ele>151.4</ele>
        <time>2015-02-27T04:09:14Z</time>
      </trkpt>
      <trkpt lat="43.98326" lon="0.46903">
        <ele>152.1</ele>
        <time>2015-02-27T04:09:34Z</time>
      </trkpt>
      <trkpt lat="43.98334" lon="0.46929">
        <ele>152.5</ele>
        <time>2015-02-27T04:09:54Z</time>
      </trkpt>
      <trkpt lat="43.98344" lon="0.46953">
        <ele>152.8</ele>
        <time>2015-02-27T04:10:12Z</time>
      </trkpt>
      <trkpt lat="43.98359" lon="0.46977">
        <ele>153.2</ele>
        <time>2015-02-27T04:10:34Z</time>
      </trkpt>
      <trkpt lat="43.98376" lon="0.47003">
        <ele>154.5</ele>
        <time>2015-02-27T04:10:58Z</time>
      </trkpt>
      <trkpt lat="43.98397" lon="0.47024">
        <ele>155.8</ele>
        <time>2015-02-27T04:11:23Z</time>
      </trkpt>
      <trkpt lat="43.98421" lon="0.4706">
        <ele>157.2</ele>
        <time>2015-02-27T04:11:57Z</time>
      </trkpt>
      <trkpt lat="43.98435" lon="0.47094">
        <ele>158.4</ele>
        <time>2015-02-27T04:12:24Z</time>
      </trkpt>
      <trkpt lat="43.98454" lon="0.47134">
        <ele>159.5</ele>
        <time>2015-02-27T04:12:56Z</time>
      </trkpt>
      <trkpt lat="43.98467" lon="0.47178">
        <ele>161.2</ele>
        <time>2015-02-27T04:13:29Z</time>
      </trkpt>
      <trkpt lat="43.98476" lon="0.47197">
        <ele>162.8</ele>
        <time>2015-02-27T04:13:44Z</time>
      </trkpt>
      <trkpt lat="43.98484" lon="0.47218">
        <ele>163.4</ele>
        <time>2015-02-27T04:14:01Z</time>
      </trkpt>
      <trkpt lat="43.98493" lon="0.47241">
        <ele>164.8</ele>
        <time>2015-02-27T04:14:19Z</time>
      </trkpt>
      <trkpt lat="43.98503" lon="0.47273">
        <ele>166.3</ele>
        <time>2015-02-27T04:14:42Z</time>
      </trkpt>
      <trkpt lat="43.98517" lon="0.47325">
        <ele>167.7</ele>
        <time>2015-02-27T04:15:20Z</time>
      </trkpt>
      <trkpt lat="43.98528" lon="0.47343">
        <ele>168.6</ele>
        <time>2015-02-27T04:15:37Z</time>
      </trkpt>
      <trkpt lat="43.98536" lon="0.47359">
        <ele>169.5</ele>
        <time>2015-02-27T04:15:50Z</time>
      </trkpt>
      <trkpt lat="43.98538" lon="0.47392">
        <ele>170.5</ele>
        <time>2015-02-27T04:16:13Z</time>
      </trkpt>
      <trkpt lat="43.98537" lon="0.4743">
        <ele>171.5</ele>
        <time>2015-02-27T04:16:38Z</time>
      </trkpt>
      <trkpt lat="43.98536" lon="0.47464">
        <ele>173.1</ele>
        <time>2015-02-27T04:17:02Z</time>
      </trkpt>
      <trkpt lat="43.98553" lon="0.4749">
        <ele>174.2</ele>
        <time>2015-02-27T04:17:26Z</time>
      </trkpt>
      <trkpt lat="43.98574" lon="0.47528">
        <ele>177.9</ele>
        <time>2015-02-27T04:17:59Z</time>
      </trkpt>
      <trkpt lat="43.98576" lon="0.47538">
        <ele>182.3</ele>
        <time>2015-02-27T04:18:06Z</time>
      </trkpt>
      <trkpt lat="43.98577" lon="0.47537">
        <ele>186.1</ele>
        <time>2015-02-27T04:18:07Z</time>
      </trkpt>
      <trkpt lat="43.98547" lon="0.47748">
        <ele>189.7</ele>
        <time>2015-02-27T04:20:34Z</time>
      </trkpt>
      <trkpt lat="43.98349" lon="0.47769">
        <ele>193.4</ele>
        <time>2015-02-27T04:23:42Z</time>
      </trkpt>
      <trkpt lat="43.98284" lon="0.48194">
        <ele>196.5</ele>
        <time>2015-02-27T04:28:40Z</time>
      </trkpt>
      <trkpt lat="43.98281" lon="0.48221">
        <ele>199.9</ele>
        <time>2015-02-27T04:28:59Z</time>
      </trkpt>
      <trkpt lat="43.98268" lon="0.48275">
        <ele>203.3</ele>
        <time>2015-02-27T04:29:38Z</time>
      </trkpt>
      <trkpt lat="43.98254" lon="0.48318">
        <ele>206.6</ele>
        <time>2015-02-27T04:30:10Z</time>
      </trkpt>
      <trkpt lat="43.98242" lon="0.48366">
        <ele>209.5</ele>
        <time>2015-02-27T04:30:45Z</time>
      </trkpt>
      <trkpt lat="43.98237" lon="0.48382">
        <ele>212.8</ele>
        <time>2015-02-27T04:30:57Z</time>
      </trkpt>
      <trkpt lat="43.98231" lon="0.48399">
        <ele>213.5</ele>
        <time>2015-02-27T04:31:09Z</time>
      </trkpt>
      <trkpt lat="43.98218" lon="0.48443">
        <ele>212.7</ele>
        <time>2015-02-27T04:31:42Z</time>
      </trkpt>
      <trkpt lat="43.98204" lon="0.48466">
        <ele>212</ele>
        <time>2015-02-27T04:32:03Z</time>
      </trkpt>
      <trkpt lat="43.98184" lon="0.48504">
        <ele>211.5</ele>
        <time>2015-02-27T04:32:35Z</time>
      </trkpt>
      <trkpt lat="43.98179" lon="0.48509">
        <ele>210.9</ele>
        <time>2015-02-27T04:32:41Z</time>
      </trkpt>
      <trkpt lat="43.98173" lon="0.48499">
        <ele>210.3</ele>
        <time>2015-02-27T04:32:51Z</time>
      </trkpt>
      <trkpt lat="43.98198" lon="0.48765">
        <ele>209.5</ele>
        <time>2015-02-27T04:35:54Z</time>
      </trkpt>
      <trkpt lat="43.98195" lon="0.48765">
        <ele>208.4</ele>
        <time>2015-02-27T04:35:56Z</time>
      </trkpt>
      <trkpt lat="43.98196" lon="0.48776">
        <ele>207.1</ele>
        <time>2015-02-27T04:36:04Z</time>
      </trkpt>
      <trkpt lat="43.98176" lon="0.48917">
        <ele>205.5</ele>
        <time>2015-02-27T04:37:42Z</time>
      </trkpt>
      <trkpt lat="43.98164" lon="0.48988">
        <ele>203.5</ele>
        <time>2015-02-27T04:38:32Z</time>
      </trkpt>
      <trkpt lat="43.98164" lon="0.48996">
        <ele>201.5</ele>
        <time>2015-02-27T04:38:38Z</time>
      </trkpt>
      <trkpt lat="43.98164" lon="0.49057">
        <ele>200.2</ele>
        <time>2015-02-27T04:39:20Z</time>
      </trkpt>
      <trkpt lat="43.9816" lon="0.49159">
        <ele>199</ele>
        <time>2015-02-27T04:40:29Z</time>
      </trkpt>
      <trkpt lat="43.98158" lon="0.49237">
        <ele>197.7</ele>
        <time>2015-02-27T04:41:23Z</time>
      </trkpt>
      <trkpt lat="43.98157" lon="0.49321">
        <ele>195.9</ele>
        <time>2015-02-27T04:42:21Z</time>
      </trkpt>
      <trkpt lat="43.98159" lon="0.49347">
        <ele>194.4</ele>
        <time>2015-02-27T04:42:38Z</time>
      </trkpt>
      <trkpt lat="43.98151" lon="0.49348">
        <ele>192.9</ele>
        <time>2015-02-27T04:42:46Z</time>
      </trkpt>
      <trkpt lat="43.98182" lon="0.49451">
        <ele>191.1</ele>
        <time>2015-02-27T04:44:02Z</time>
      </trkpt>
      <trkpt lat="43.98201" lon="0.49529">
        <ele>190</ele>
        <time>2015-02-27T04:44:58Z</time>
      </trkpt>
      <trkpt lat="43.98225" lon="0.49606">
        <ele>189.5</ele>
        <time>2015-02-27T04:45:56Z</time>
      </trkpt>
      <trkpt lat="43.98269" lon="0.49696">
        <ele>189.7</ele>
        <time>2015-02-27T04:47:10Z</time>
      </trkpt>
      <trkpt lat="43.98263" lon="0.49803">
        <ele>190.1</ele>
        <time>2015-02-27T04:48:24Z</time>
      </trkpt>
      <trkpt lat="43.98334" lon="0.49872">
        <ele>190.4</ele>
        <time>2015-02-27T04:49:46Z</time>
      </trkpt>
      <trkpt lat="43.98225" lon="0.50069">
        <ele>190.1</ele>
        <time>2015-02-27T04:52:36Z</time>
      </trkpt>
      <trkpt lat="43.98259" lon="0.50185">
        <ele>190</ele>
        <time>2015-02-27T04:54:02Z</time>
      </trkpt>
      <trkpt lat="43.98099" lon="0.50241">
        <ele>190.5</ele>
        <time>2015-02-27T04:56:39Z</time>
      </trkpt>
      <trkpt lat="43.98046" lon="0.50378">
        <ele>190.5</ele>
        <time>2015-02-27T04:58:26Z</time>
      </trkpt>
      <trkpt lat="43.97926" lon="0.50503">
        <ele>189.5</ele>
        <time>2015-02-27T05:00:49Z</time>
      </trkpt>
      <trkpt lat="43.97827" lon="0.50829">
        <ele>189.4</ele>
        <time>2015-02-27T05:04:51Z</time>
      </trkpt>
      <trkpt lat="43.9779" lon="0.51022">
        <ele>187.7</ele>
        <time>2015-02-27T05:07:08Z</time>
      </trkpt>
      <trkpt lat="43.97676" lon="0.51219">
        <ele>186.5</ele>
        <time>2015-02-27T05:10:02Z</time>
      </trkpt>
      <trkpt lat="43.97636" lon="0.51365">
        <ele>184.1</ele>
        <time>2015-02-27T05:11:49Z</time>
      </trkpt>
      <trkpt lat="43.97456" lon="0.51541">
        <ele>181.7</ele>
        <time>2015-02-27T05:15:17Z</time>
      </trkpt>
      <trkpt lat="43.97324" lon="0.51867">
        <ele>178.8</ele>
        <time>2015-02-27T05:19:34Z</time>
      </trkpt>
      <trkpt lat="43.97104" lon="0.52134">
        <ele>174.1</ele>
        <time>2015-02-27T05:24:11Z</time>
      </trkpt>
      <trkpt lat="43.96972" lon="0.52597">
        <ele>167.1</ele>
        <time>2015-02-27T05:29:53Z</time>
      </trkpt>
      <trkpt lat="43.96703" lon="0.53018">
        <ele>159.5</ele>
        <time>2015-02-27T05:36:18Z</time>
      </trkpt>
      <trkpt lat="43.96576" lon="0.53065">
        <ele>151.1</ele>
        <time>2015-02-27T05:38:23Z</time>
      </trkpt>
      <trkpt lat="43.9648" lon="0.53061">
        <ele>143.3</ele>
        <time>2015-02-27T05:39:54Z</time>
      </trkpt>
      <trkpt lat="43.96363" lon="0.53215">
        <ele>135.3</ele>
        <time>2015-02-27T05:42:28Z</time>
      </trkpt>
      <trkpt lat="43.96307" lon="0.53412">
        <ele>128.2</ele>
        <time>2015-02-27T05:44:53Z</time>
      </trkpt>
      <trkpt lat="43.96348" lon="0.53541">
        <ele>121.2</ele>
        <time>2015-02-27T05:46:29Z</time>
      </trkpt>
      <trkpt lat="43.96135" lon="0.5373">
        <ele>121.4</ele>
        <time>2015-02-27T05:50:30Z</time>
      </trkpt>
      <trkpt lat="43.96221" lon="0.53992">
        <ele>122.2</ele>
        <time>2015-02-27T05:53:47Z</time>
      </trkpt>
      <trkpt lat="43.96323" lon="0.54206">
        <ele>123.6</ele>
        <time>2015-02-27T05:56:44Z</time>
      </trkpt>
      <trkpt lat="43.96357" lon="0.54867">
        <ele>127.3</ele>
        <time>2015-02-27T06:04:17Z</time>
      </trkpt>
      <trkpt lat="43.96221" lon="0.54992">
        <ele>133.1</ele>
        <time>2015-02-27T06:06:52Z</time>
      </trkpt>
      <trkpt lat="43.96357" lon="0.55481">
        <ele>139.9</ele>
        <time>2015-02-27T06:12:52Z</time>
      </trkpt>
      <trkpt lat="43.96382" lon="0.55543">
        <ele>148.1</ele>
        <time>2015-02-27T06:13:41Z</time>
      </trkpt>
      <trkpt lat="43.96387" lon="0.55541">
        <ele>156.5</ele>
        <time>2015-02-27T06:13:46Z</time>
      </trkpt>
      <trkpt lat="43.96386" lon="0.55553">
        <ele>164.9</ele>
        <time>2015-02-27T06:13:54Z</time>
      </trkpt>
      <trkpt lat="43.96381" lon="0.55569">
        <ele>173.4</ele>
        <time>2015-02-27T06:14:06Z</time>
      </trkpt>
      <trkpt lat="43.96375" lon="0.55588">
        <ele>181</ele>
        <time>2015-02-27T06:14:21Z</time>
      </trkpt>
      <trkpt lat="43.96349" lon="0.55683">
        <ele>182.6</ele>
        <time>2015-02-27T06:15:30Z</time>
      </trkpt>
      <trkpt lat="43.96339" lon="0.55722">
        <ele>183.4</ele>
        <time>2015-02-27T06:15:58Z</time>
      </trkpt>
      <trkpt lat="43.96339" lon="0.55745">
        <ele>183.7</ele>
        <time>2015-02-27T06:16:14Z</time>
      </trkpt>
      <trkpt lat="43.96339" lon="0.55771">
        <ele>184.2</ele>
        <time>2015-02-27T06:16:32Z</time>
      </trkpt>
      <trkpt lat="43.96342" lon="0.55792">
        <ele>184.6</ele>
        <time>2015-02-27T06:16:47Z</time>
      </trkpt>
      <trkpt lat="43.96348" lon="0.55812">
        <ele>184.7</ele>
        <time>2015-02-27T06:17:02Z</time>
      </trkpt>
      <trkpt lat="43.96371" lon="0.55856">
        <ele>184.5</ele>
        <time>2015-02-27T06:17:39Z</time>
      </trkpt>
      <trkpt lat="43.96402" lon="0.55919">
        <ele>183.8</ele>
        <time>2015-02-27T06:18:31Z</time>
      </trkpt>
      <trkpt lat="43.96412" lon="0.55947">
        <ele>183.3</ele>
        <time>2015-02-27T06:18:53Z</time>
      </trkpt>
      <trkpt lat="43.96422" lon="0.55977">
        <ele>182.8</ele>
        <time>2015-02-27T06:19:15Z</time>
      </trkpt>
      <trkpt lat="43.96432" lon="0.56017">
        <ele>181.5</ele>
        <time>2015-02-27T06:19:44Z</time>
      </trkpt>
      <trkpt lat="43.96422" lon="0.56022">
        <ele>179.4</ele>
        <time>2015-02-27T06:19:54Z</time>
      </trkpt>
      <trkpt lat="43.96607" lon="0.56374">
        <ele>175.6</ele>
        <time>2015-02-27T06:24:53Z</time>
      </trkpt>
      <trkpt lat="43.96817" lon="0.56786">
        <ele>171</ele>
        <time>2015-02-27T06:30:39Z</time>
      </trkpt>
      <trkpt lat="43.96836" lon="0.56974">
        <ele>165.5</ele>
        <time>2015-02-27T06:32:49Z</time>
      </trkpt>
      <trkpt lat="43.97002" lon="0.57163">
        <ele>158.5</ele>
        <time>2015-02-27T06:36:14Z</time>
      </trkpt>
      <trkpt lat="43.97305" lon="0.57253">
        <ele>151.8</ele>
        <time>2015-02-27T06:41:09Z</time>
      </trkpt>
      <trkpt lat="43.97478" lon="0.57386">
        <ele>144.2</ele>
        <time>2015-02-27T06:44:17Z</time>
      </trkpt>
      <trkpt lat="43.97565" lon="0.57356">
        <ele>136.8</ele>
        <time>2015-02-27T06:45:42Z</time>
      </trkpt>
      <trkpt lat="43.97688" lon="0.57412">
        <ele>128.5</ele>
        <time>2015-02-27T06:47:45Z</time>
      </trkpt>
      <trkpt lat="43.97716" lon="0.5782">
        <ele>120</ele>
        <time>2015-02-27T06:52:26Z</time>
      </trkpt>
      <trkpt lat="43.97679" lon="0.57858">
        <ele>113</ele>
        <time>2015-02-27T06:53:10Z</time>
      </trkpt>
      <trkpt lat="43.97821" lon="0.57974">
        <ele>106.3</ele>
        <time>2015-02-27T06:55:47Z</time>
      </trkpt>
      <trkpt lat="43.97935" lon="0.58026">
        <ele>101.1</ele>
        <time>2015-02-27T06:57:41Z</time>
      </trkpt>
      <trkpt lat="43.97991" lon="0.58189">
        <ele>96.2</ele>
        <time>2015-02-27T06:59:45Z</time>
      </trkpt>
      <trkpt lat="43.97991" lon="0.58343">
        <ele>91.9</ele>
        <time>2015-02-27T07:01:31Z</time>
      </trkpt>
      <trkpt lat="43.97957" lon="0.58335">
        <ele>88.9</ele>
        <time>2015-02-27T07:02:03Z</time>
      </trkpt>
      <trkpt lat="43.97997" lon="0.58481">
        <ele>85.8</ele>
        <time>2015-02-27T07:03:50Z</time>
      </trkpt>
      <trkpt lat="43.98034" lon="0.58931">
        <ele>83.5</ele>
        <time>2015-02-27T07:09:01Z</time>
      </trkpt>
      <trkpt lat="43.98134" lon="0.59032">
        <ele>81.4</ele>
        <time>2015-02-27T07:10:59Z</time>
      </trkpt>
      <trkpt lat="43.98178" lon="0.59139">
        <ele>80.1</ele>
        <time>2015-02-27T07:12:23Z</time>
      </trkpt>
      <trkpt lat="43.98225" lon="0.5918">
        <ele>78.9</ele>
        <time>2015-02-27T07:13:17Z</time>
      </trkpt>
      <trkpt lat="43.98318" lon="0.59219">
        <ele>77.5</ele>
        <time>2015-02-27T07:14:49Z</time>
      </trkpt>
      <trkpt lat="43.98346" lon="0.59303">
        <ele>76.5</ele>
        <time>2015-02-27T07:15:52Z</time>
      </trkpt>
      <trkpt lat="43.98346" lon="0.59397">
        <ele>75.6</ele>
        <time>2015-02-27T07:16:56Z</time>
      </trkpt>
      <trkpt lat="43.98329" lon="0.59474">
        <ele>75.8</ele>
        <time>2015-02-27T07:17:52Z</time>
      </trkpt>
      <trkpt lat="43.9829" lon="0.59541">
        <ele>75.8</ele>
        <time>2015-02-27T07:18:50Z</time>
      </trkpt>
      <trkpt lat="43.98293" lon="0.59639">
        <ele>75.7</ele>
        <time>2015-02-27T07:19:58Z</time>
      </trkpt>
      <trkpt lat="43.98294" lon="0.59638">
        <ele>75.4</ele>
        <time>2015-02-27T07:19:59Z</time>
      </trkpt>
      <trkpt lat="43.98305" lon="0.59641">
        <ele>75.5</ele>
        <time>2015-02-27T07:20:09Z</time>
      </trkpt>
      <trkpt lat="43.9834" lon="0.59632">
        <ele>75.8</ele>
        <time>2015-02-27T07:20:44Z</time>
      </trkpt>
      <trkpt lat="43.98375" lon="0.59622">
        <ele>76</ele>
        <time>2015-02-27T07:21:17Z</time>
      </trkpt>
      <trkpt lat="43.98392" lon="0.59619">
        <ele>76.3</ele>
        <time>2015-02-27T07:21:34Z</time>
      </trkpt>
      <trkpt lat="43.98404" lon="0.59627">
        <ele>76.1</ele>
        <time>2015-02-27T07:21:47Z</time>
      </trkpt>
      <trkpt lat="43.98406" lon="0.59637">
        <ele>75.9</ele>
        <time>2015-02-27T07:21:54Z</time>
      </trkpt>
      <trkpt lat="43.98411" lon="0.59655">
        <ele>75.9</ele>
        <time>2015-02-27T07:22:07Z</time>
      </trkpt>
      <trkpt lat="43.98407" lon="0.5967">
        <ele>75.9</ele>
        <time>2015-02-27T07:22:18Z</time>
      </trkpt>
      <trkpt lat="43.98401" lon="0.59678">
        <ele>76.4</ele>
        <time>2015-02-27T07:22:26Z</time>
      </trkpt>
      <trkpt lat="43.98396" lon="0.59684">
        <ele>77.1</ele>
        <time>2015-02-27T07:22:32Z</time>
      </trkpt>
      <trkpt lat="43.98386" lon="0.59687">
        <ele>77.6</ele>
        <time>2015-02-27T07:22:43Z</time>
      </trkpt>
      <trkpt lat="43.98366" lon="0.59688">
        <ele>77.8</ele>
        <time>2015-02-27T07:23:01Z</time>
      </trkpt>
      <trkpt lat="43.98339" lon="0.59698">
        <ele>78.3</ele>
        <time>2015-02-27T07:23:28Z</time>
      </trkpt>
      <trkpt lat="43.98323" lon="0.5968">
        <ele>78.7</ele>
        <time>2015-02-27T07:23:47Z</time>
      </trkpt>
      <trkpt lat="43.98309" lon="0.5968">
        <ele>79.2</ele>
        <time>2015-02-27T07:24:00Z</time>
      </trkpt>
      <trkpt lat="43.98288" lon="0.59684">
        <ele>80.2</ele>
        <time>2015-02-27T07:24:20Z</time>
      </trkpt>
      <trkpt lat="43.98245" lon="0.59698">
        <ele>80.4</ele>
        <time>2015-02-27T07:25:03Z</time>
      </trkpt>
      <trkpt lat="43.98213" lon="0.5973">
        <ele>80.2</ele>
        <time>2015-02-27T07:25:40Z</time>
      </trkpt>
      <trkpt lat="43.98185" lon="0.5976">
        <ele>80.6</ele>
        <time>2015-02-27T07:26:13Z</time>
      </trkpt>
      <trkpt lat="43.98171" lon="0.59777">
        <ele>81.1</ele>
        <time>2015-02-27T07:26:31Z</time>
      </trkpt>
      <trkpt lat="43.98142" lon="0.59818">
        <ele>81.5</ele>
        <time>2015-02-27T07:27:11Z</time>
      </trkpt>
      <trkpt lat="43.98122" lon="0.5985">
        <ele>82</ele>
        <time>2015-02-27T07:27:40Z</time>
      </trkpt>
      <trkpt lat="43.98113" lon="0.59869">
        <ele>82.3</ele>
        <time>2015-02-27T07:27:56Z</time>
      </trkpt>
      <trkpt lat="43.98093" lon="0.59903">
        <ele>82.3</ele>
        <time>2015-02-27T07:28:26Z</time>
      </trkpt>
      <trkpt lat="43.98072" lon="0.59911">
        <ele>82.3</ele>
        <time>2015-02-27T07:28:46Z</time>
      </trkpt>
      <trkpt lat="43.98043" lon="0.59904">
        <ele>82</ele>
        <time>2015-02-27T07:29:14Z</time>
      </trkpt>
      <trkpt lat="43.98" lon="0.59925">
        <ele>82.3</ele>
        <time>2015-02-27T07:29:58Z</time>
      </trkpt>
      <trkpt lat="43.97942" lon="0.59947">
        <ele>83</ele>
        <time>2015-02-27T07:30:55Z</time>
      </trkpt>
      <trkpt lat="43.97914" lon="0.59957">
        <ele>83.7</ele>
        <time>2015-02-27T07:31:23Z</time>
      </trkpt>
      <trkpt lat="43.97889" lon="0.59969">
        <ele>83.8</ele>
        <time>2015-02-27T07:31:48Z</time>
      </trkpt>
      <trkpt lat="43.97862" lon="0.59966">
        <ele>83.9</ele>
        <time>2015-02-27T07:32:13Z</time>
      </trkpt>
      <trkpt lat="43.97835" lon="0.59972">
        <ele>84.1</ele>
        <time>2015-02-27T07:32:40Z</time>
      </trkpt>
      <trkpt lat="43.97787" lon="0.59977">
        <ele>84.3</ele>
        <time>2015-02-27T07:33:26Z</time>
      </trkpt>
      <trkpt lat="43.97748" lon="0.59979">
        <ele>85.1</ele>
        <time>2015-02-27T07:34:02Z</time>
      </trkpt>
      <trkpt lat="43.9771" lon="0.59981">
        <ele>85.9</ele>
        <time>2015-02-27T07:34:39Z</time>
      </trkpt>
      <trkpt lat="43.97682" lon="0.59986">
        <ele>86.7</ele>
        <time>2015-02-27T07:35:06Z</time>
      </trkpt>
      <trkpt lat="43.97656" lon="0.59991">
        <ele>87.2</ele>
        <time>2015-02-27T07:35:30Z</time>
      </trkpt>
      <trkpt lat="43.97637" lon="0.59978">
        <ele>86.5</ele>
        <time>2015-02-27T07:35:51Z</time>
      </trkpt>
      <trkpt lat="43.97601" lon="0.59977">
        <ele>86.3</ele>
        <time>2015-02-27T07:36:25Z</time>
      </trkpt>
      <trkpt lat="43.97563" lon="0.59979">
        <ele>86</ele>
        <time>2015-02-27T07:37:02Z</time>
      </trkpt>
      <trkpt lat="43.97562" lon="0.59979">
        <ele>85.8</ele>
        <time>2015-02-27T07:37:02Z</time>
      </trkpt>
      <trkpt lat="43.9753" lon="0.59979">
        <ele>85.8</ele>
        <time>2015-02-27T07:37:32Z</time>
      </trkpt>
      <trkpt lat="43.97516" lon="0.5999">
        <ele>86.1</ele>
        <time>2015-02-27T07:37:48Z</time>
      </trkpt>
      <trkpt lat="43.97487" lon="0.60011">
        <ele>86.4</ele>
        <time>2015-02-27T07:38:19Z</time>
      </trkpt>
      <trkpt lat="43.97468" lon="0.60026">
        <ele>86.3</ele>
        <time>2015-02-27T07:38:40Z</time>
      </trkpt>
      <trkpt lat="43.97432" lon="0.60047">
        <ele>86.6</ele>
        <time>2015-02-27T07:39:17Z</time>
      </trkpt>
      <trkpt lat="43.97407" lon="0.60071">
        <ele>87</ele>
        <time>2015-02-27T07:39:46Z</time>
      </trkpt>
      <trkpt lat="43.97364" lon="0.60107">
        <ele>88</ele>
        <time>2015-02-27T07:40:34Z</time>
      </trkpt>
      <trkpt lat="43.97339" lon="0.60124">
        <ele>89.1</ele>
        <time>2015-02-27T07:41:01Z</time>
      </trkpt>
      <trkpt lat="43.97331" lon="0.60129">
        <ele>90.2</ele>
        <time>2015-02-27T07:41:09Z</time>
      </trkpt>
      <trkpt lat="43.97293" lon="0.60147">
        <ele>91.6</ele>
        <time>2015-02-27T07:41:47Z</time>
      </trkpt>
      <trkpt lat="43.97254" lon="0.60155">
        <ele>93</ele>
        <time>2015-02-27T07:42:25Z</time>
      </trkpt>
      <trkpt lat="43.97222" lon="0.6017">
        <ele>94.8</ele>
        <time>2015-02-27T07:42:57Z</time>
      </trkpt>
      <trkpt lat="43.97178" lon="0.60214">
        <ele>96.4</ele>
        <time>2015-02-27T07:43:48Z</time>
      </trkpt>
      <trkpt lat="43.97126" lon="0.6025">
        <ele>97.9</ele>
        <time>2015-02-27T07:44:43Z</time>
      </trkpt>
      <trkpt lat="43.97091" lon="0.60258">
        <ele>99.5</ele>
        <time>2015-02-27T07:45:18Z</time>
      </trkpt>
      <trkpt lat="43.97065" lon="0.60267">
        <ele>101.5</ele>
        <time>2015-02-27T07:45:43Z</time>
      </trkpt>
      <trkpt lat="43.97019" lon="0.60306">
        <ele>103.6</ele>
        <time>2015-02-27T07:46:35Z</time>
      </trkpt>
      <trkpt lat="43.97004" lon="0.60309">
        <ele>106.7</ele>
        <time>2015-02-27T07:46:49Z</time>
      </trkpt>
      <trkpt lat="43.96985" lon="0.60322">
        <ele>112.5</ele>
        <time>2015-02-27T07:47:09Z</time>
      </trkpt>
      <trkpt lat="43.96965" lon="0.60337">
        <ele>119.5</ele>
        <time>2015-02-27T07:47:30Z</time>
      </trkpt>
      <trkpt lat="43.9696" lon="0.60337">
        <ele>125.9</ele>
        <time>2015-02-27T07:47:35Z</time>
      </trkpt>
      <trkpt lat="43.96959" lon="0.60322">
        <ele>132.1</ele>
        <time>2015-02-27T07:47:46Z</time>
      </trkpt>
      <trkpt lat="43.96907" lon="0.60476">
        <ele>137.8</ele>
        <time>2015-02-27T07:49:43Z</time>
      </trkpt>
      <trkpt lat="43.96746" lon="0.60592">
        <ele>144.5</ele>
        <time>2015-02-27T07:52:35Z</time>
      </trkpt>
      <trkpt lat="43.96632" lon="0.60635">
        <ele>151.1</ele>
        <time>2015-02-27T07:54:28Z</time>
      </trkpt>
      <trkpt lat="43.96511" lon="0.60766">
        <ele>157.1</ele>
        <time>2015-02-27T07:56:53Z</time>
      </trkpt>
      <trkpt lat="43.96409" lon="0.6085">
        <ele>163.1</ele>
        <time>2015-02-27T07:58:46Z</time>
      </trkpt>
      <trkpt lat="43.96341" lon="0.61189">
        <ele>169.1</ele>
        <time>2015-02-27T08:02:47Z</time>
      </trkpt>
      <trkpt lat="43.96348" lon="0.61238">
        <ele>174.6</ele>
        <time>2015-02-27T08:03:21Z</time>
      </trkpt>
      <trkpt lat="43.96281" lon="0.61363">
        <ele>177</ele>
        <time>2015-02-27T08:05:08Z</time>
      </trkpt>
      <trkpt lat="43.96099" lon="0.61687">
        <ele>178.4</ele>
        <time>2015-02-27T08:09:49Z</time>
      </trkpt>
      <trkpt lat="43.96151" lon="0.61742">
        <ele>180.3</ele>
        <time>2015-02-27T08:10:52Z</time>
      </trkpt>
      <trkpt lat="43.96187" lon="0.62154">
        <ele>182.9</ele>
        <time>2015-02-27T08:15:36Z</time>
      </trkpt>
      <trkpt lat="43.96158" lon="0.62461">
        <ele>185.1</ele>
        <time>2015-02-27T08:19:09Z</time>
      </trkpt>
      <trkpt lat="43.96006" lon="0.62777">
        <ele>186.4</ele>
        <time>2015-02-27T08:23:28Z</time>
      </trkpt>
      <trkpt lat="43.95957" lon="0.62826">
        <ele>188.5</ele>
        <time>2015-02-27T08:24:26Z</time>
      </trkpt>
      <trkpt lat="43.95813" lon="0.62682">
        <ele>191.9</ele>
        <time>2015-02-27T08:27:15Z</time>
      </trkpt>
      <trkpt lat="43.95688" lon="0.62693">
        <ele>194.7</ele>
        <time>2015-02-27T08:29:14Z</time>
      </trkpt>
      <trkpt lat="43.95619" lon="0.62807">
        <ele>197.6</ele>
        <time>2015-02-27T08:30:56Z</time>
      </trkpt>
      <trkpt lat="43.956" lon="0.62953">
        <ele>199.7</ele>
        <time>2015-02-27T08:32:38Z</time>
      </trkpt>
      <trkpt lat="43.95637" lon="0.63077">
        <ele>202.4</ele>
        <time>2015-02-27T08:34:10Z</time>
      </trkpt>
      <trkpt lat="43.95878" lon="0.63255">
        <ele>204.5</ele>
        <time>2015-02-27T08:38:30Z</time>
      </trkpt>
      <trkpt lat="43.95963" lon="0.63433">
        <ele>206.2</ele>
        <time>2015-02-27T08:40:56Z</time>
      </trkpt>
      <trkpt lat="43.9605" lon="0.63598">
        <ele>207</ele>
        <time>2015-02-27T08:43:16Z</time>
      </trkpt>
      <trkpt lat="43.96139" lon="0.63684">
        <ele>207.4</ele>
        <time>2015-02-27T08:45:00Z</time>
      </trkpt>
      <trkpt lat="43.9611" lon="0.63721">
        <ele>207.6</ele>
        <time>2015-02-27T08:45:37Z</time>
      </trkpt>
      <trkpt lat="43.95958" lon="0.64259">
        <ele>207.2</ele>
        <time>2015-02-27T08:52:14Z</time>
      </trkpt>
      <trkpt lat="43.95853" lon="0.6421">
        <ele>205.2</ele>
        <time>2015-02-27T08:53:59Z</time>
      </trkpt>
      <trkpt lat="43.95799" lon="0.64324">
        <ele>203.4</ele>
        <time>2015-02-27T08:55:32Z</time>
      </trkpt>
      <trkpt lat="43.95728" lon="0.6433">
        <ele>201.5</ele>
        <time>2015-02-27T08:56:40Z</time>
      </trkpt>
      <trkpt lat="43.95728" lon="0.64331">
        <ele>199.8</ele>
        <time>2015-02-27T08:56:41Z</time>
      </trkpt>
      <trkpt lat="43.95715" lon="0.64348">
        <ele>198.1</ele>
        <time>2015-02-27T08:56:58Z</time>
      </trkpt>
      <trkpt lat="43.95701" lon="0.64381">
        <ele>196.5</ele>
        <time>2015-02-27T08:57:24Z</time>
      </trkpt>
      <trkpt lat="43.95693" lon="0.64398">
        <ele>195.2</ele>
        <time>2015-02-27T08:57:38Z</time>
      </trkpt>
      <trkpt lat="43.95679" lon="0.64416">
        <ele>194.2</ele>
        <time>2015-02-27T08:57:56Z</time>
      </trkpt>
      <trkpt lat="43.95664" lon="0.64437">
        <ele>193.7</ele>
        <time>2015-02-27T08:58:16Z</time>
      </trkpt>
      <trkpt lat="43.95656" lon="0.64449">
        <ele>193.8</ele>
        <time>2015-02-27T08:58:28Z</time>
      </trkpt>
      <trkpt lat="43.95656" lon="0.64448">
        <ele>193.9</ele>
        <time>2015-02-27T08:58:28Z</time>
      </trkpt>
      <trkpt lat="43.95628" lon="0.64444">
        <ele>194.9</ele>
        <time>2015-02-27T08:58:55Z</time>
      </trkpt>
      <trkpt lat="43.95629" lon="0.64445">
        <ele>195.3</ele>
        <time>2015-02-27T08:58:56Z</time>
      </trkpt>
      <trkpt lat="43.95623" lon="0.6445">
        <ele>195.8</ele>
        <time>2015-02-27T08:59:03Z</time>
      </trkpt>
      <trkpt lat="43.95609" lon="0.64484">
        <ele>196.4</ele>
        <time>2015-02-27T08:59:29Z</time>
      </trkpt>
      <trkpt lat="43.95604" lon="0.64492">
        <ele>196.9</ele>
        <time>2015-02-27T08:59:37Z</time>
      </trkpt>
      <trkpt lat="43.95596" lon="0.64496">
        <ele>197.5</ele>
        <time>2015-02-27T08:59:45Z</time>
      </trkpt>
      <trkpt lat="43.95595" lon="0.64493">
        <ele>198</ele>
        <time>2015-02-27T08:59:47Z</time>
      </trkpt>
      <trkpt lat="43.95476" lon="0.64519">
        <ele>198.9</ele>
        <time>2015-02-27T09:01:42Z</time>
      </trkpt>
      <trkpt lat="43.95477" lon="0.64521">
        <ele>200</ele>
        <time>2015-02-27T09:01:43Z</time>
      </trkpt>
      <trkpt lat="43.9547" lon="0.64522">
        <ele>200.5</ele>
        <time>2015-02-27T09:01:50Z</time>
      </trkpt>
      <trkpt lat="43.95437" lon="0.64531">
        <ele>200.9</ele>
        <time>2015-02-27T09:02:21Z</time>
      </trkpt>
      <trkpt lat="43.95391" lon="0.64538">
        <ele>201.3</ele>
        <time>2015-02-27T09:03:06Z</time>
      </trkpt>
      <trkpt lat="43.95306" lon="0.64549">
        <ele>201.6</ele>
        <time>2015-02-27T09:04:26Z</time>
      </trkpt>
      <trkpt lat="43.95307" lon="0.64549">
        <ele>201.8</ele>
        <time>2015-02-27T09:04:26Z</time>
      </trkpt>
      <trkpt lat="43.95306" lon="0.64549">
        <ele>201.9</ele>
        <time>2015-02-27T09:04:27Z</time>
      </trkpt>
      <trkpt lat="43.95286" lon="0.64544">
        <ele>202</ele>
        <time>2015-02-27T09:04:46Z</time>
      </trkpt>
      <trkpt lat="43.9525" lon="0.64532">
        <ele>202.1</ele>
        <time>2015-02-27T09:05:21Z</time>
      </trkpt>
      <trkpt lat="43.95239" lon="0.64529">
        <ele>202.2</ele>
        <time>2015-02-27T09:05:32Z</time>
      </trkpt>
      <trkpt lat="43.95212" lon="0.64514">
        <ele>201.9</ele>
        <time>2015-02-27T09:06:00Z</time>
      </trkpt>
      <trkpt lat="43.95196" lon="0.64508">
        <ele>201.6</ele>
        <time>2015-02-27T09:06:16Z</time>
      </trkpt>
      <trkpt lat="43.95192" lon="0.64503">
        <ele>201.4</ele>
        <time>2015-02-27T09:06:21Z</time>
      </trkpt>
      <trkpt lat="43.95184" lon="0.64501">
        <ele>200.3</ele>
        <time>2015-02-27T09:06:28Z</time>
      </trkpt>
      <trkpt lat="43.95185" lon="0.645">
        <ele>199.2</ele>
        <time>2015-02-27T09:06:30Z</time>
      </trkpt>
      <trkpt lat="43.95184" lon="0.64501">
        <ele>198.1</ele>
        <time>2015-02-27T09:06:31Z</time>
      </trkpt>
      <trkpt lat="43.95176" lon="0.64498">
        <ele>197</ele>
        <time>2015-02-27T09:06:39Z</time>
      </trkpt>
      <trkpt lat="43.9515" lon="0.64486">
        <ele>195.1</ele>
        <time>2015-02-27T09:07:05Z</time>
      </trkpt>
      <trkpt lat="43.95109" lon="0.64457">
        <ele>193.2</ele>
        <time>2015-02-27T09:07:49Z</time>
      </trkpt>
      <trkpt lat="43.95088" lon="0.64425">
        <ele>191.3</ele>
        <time>2015-02-27T09:08:18Z</time>
      </trkpt>
      <trkpt lat="43.95083" lon="0.64419">
        <ele>189.4</ele>
        <time>2015-02-27T09:08:24Z</time>
      </trkpt>
      <trkpt lat="43.9506" lon="0.64388">
        <ele>186.5</ele>
        <time>2015-02-27T09:08:55Z</time>
      </trkpt>
      <trkpt lat="43.95039" lon="0.6437">
        <ele>183.5</ele>
        <time>2015-02-27T09:09:19Z</time>
      </trkpt>
      <trkpt lat="43.95016" lon="0.64357">
        <ele>180.6</ele>
        <time>2015-02-27T09:09:43Z</time>
      </trkpt>
      <trkpt lat="43.94984" lon="0.64341">
        <ele>178.7</ele>
        <time>2015-02-27T09:10:15Z</time>
      </trkpt>
      <trkpt lat="43.94969" lon="0.64321">
        <ele>176.8</ele>
        <time>2015-02-27T09:10:35Z</time>
      </trkpt>
      <trkpt lat="43.9495" lon="0.64295">
        <ele>174.9</ele>
        <time>2015-02-27T09:11:00Z</time>
      </trkpt>
      <trkpt lat="43.94927" lon="0.64267">
        <ele>173</ele>
        <time>2015-02-27T09:11:29Z</time>
      </trkpt>
      <trkpt lat="43.94917" lon="0.64255">
        <ele>172</ele>
        <time>2015-02-27T09:11:41Z</time>
      </trkpt>
      <trkpt lat="43.94917" lon="0.64255">
        <ele>171.1</ele>
        <time>2015-02-27T09:11:42Z</time>
      </trkpt>
      <trkpt lat="43.94917" lon="0.64255">
        <ele>170.2</ele>
        <time>2015-02-27T09:11:42Z</time>
      </trkpt>
      <trkpt lat="43.94927" lon="0.64267">
        <ele>169.4</ele>
        <time>2015-02-27T09:11:54Z</time>
      </trkpt>
      <trkpt lat="43.94921" lon="0.64265">
        <ele>169.8</ele>
        <time>2015-02-27T09:12:00Z</time>
      </trkpt>
      <trkpt lat="43.94915" lon="0.64272">
        <ele>170.3</ele>
        <time>2015-02-27T09:12:07Z</time>
      </trkpt>
      <trkpt lat="43.94904" lon="0.64304">
        <ele>170.7</ele>
        <time>2015-02-27T09:12:32Z</time>
      </trkpt>
      <trkpt lat="43.94891" lon="0.64335">
        <ele>171.2</ele>
        <time>2015-02-27T09:12:56Z</time>
      </trkpt>
      <trkpt lat="43.94874" lon="0.64354">
        <ele>171.6</ele>
        <time>2015-02-27T09:13:17Z</time>
      </trkpt>
      <trkpt lat="43.94854" lon="0.64398">
        <ele>172.5</ele>
        <time>2015-02-27T09:13:52Z</time>
      </trkpt>
      <trkpt lat="43.9484" lon="0.64453">
        <ele>173.5</ele>
        <time>2015-02-27T09:14:33Z</time>
      </trkpt>
      <trkpt lat="43.94839" lon="0.64461">
        <ele>174.5</ele>
        <time>2015-02-27T09:14:38Z</time>
      </trkpt>
      <trkpt lat="43.9484" lon="0.64461">
        <ele>175.4</ele>
        <time>2015-02-27T09:14:39Z</time>
      </trkpt>
      <trkpt lat="43.94839" lon="0.64461">
        <ele>176.3</ele>
        <time>2015-02-27T09:14:39Z</time>
      </trkpt>
      <trkpt lat="43.94839" lon="0.64469">
        <ele>177.1</ele>
        <time>2015-02-27T09:14:45Z</time>
      </trkpt>
      <trkpt lat="43.94854" lon="0.64478">
        <ele>178</ele>
        <time>2015-02-27T09:15:00Z</time>
      </trkpt>
      <trkpt lat="43.94897" lon="0.64506">
        <ele>178.9</ele>
        <time>2015-02-27T09:15:46Z</time>
      </trkpt>
      <trkpt lat="43.94909" lon="0.64514">
        <ele>179.8</ele>
        <time>2015-02-27T09:15:58Z</time>
      </trkpt>
      <trkpt lat="43.94927" lon="0.64529">
        <ele>180.7</ele>
        <time>2015-02-27T09:16:18Z</time>
      </trkpt>
      <trkpt lat="43.94939" lon="0.64541">
        <ele>181.6</ele>
        <time>2015-02-27T09:16:32Z</time>
      </trkpt>
      <trkpt lat="43.94945" lon="0.64547">
        <ele>182.1</ele>
        <time>2015-02-27T09:16:39Z</time>
      </trkpt>
      <trkpt lat="43.94945" lon="0.64547">
        <ele>182.5</ele>
        <time>2015-02-27T09:16:39Z</time>
      </trkpt>
      <trkpt lat="43.94945" lon="0.64547">
        <ele>182.9</ele>
        <time>2015-02-27T09:16:40Z</time>
      </trkpt>
      <trkpt lat="43.94946" lon="0.64549">
        <ele>183.3</ele>
        <time>2015-02-27T09:16:42Z</time>
      </trkpt>
      <trkpt lat="43.94936" lon="0.6457">
        <ele>183.4</ele>
        <time>2015-02-27T09:16:59Z</time>
      </trkpt>
      <trkpt lat="43.94922" lon="0.64607">
        <ele>183.5</ele>
        <time>2015-02-27T09:17:28Z</time>
      </trkpt>
      <trkpt lat="43.94912" lon="0.64611">
        <ele>183.4</ele>
        <time>2015-02-27T09:17:38Z</time>
      </trkpt>
      <trkpt lat="43.94903" lon="0.6462">
        <ele>183.3</ele>
        <time>2015-02-27T09:17:49Z</time>
      </trkpt>
      <trkpt lat="43.94892" lon="0.64632">
        <ele>183.2</ele>
        <time>2015-02-27T09:18:01Z</time>
      </trkpt>
      <trkpt lat="43.94879" lon="0.64669">
        <ele>183.6</ele>
        <time>2015-02-27T09:18:30Z</time>
      </trkpt>
      <trkpt lat="43.94872" lon="0.647">
        <ele>184.1</ele>
        <time>2015-02-27T09:18:52Z</time>
      </trkpt>
      <trkpt lat="43.94858" lon="0.64725">
        <ele>184.5</ele>
        <time>2015-02-27T09:19:14Z</time>
      </trkpt>
      <trkpt lat="43.94849" lon="0.64748">
        <ele>185</ele>
        <time>2015-02-27T09:19:31Z</time>
      </trkpt>
      <trkpt lat="43.94841" lon="0.64769">
        <ele>185.5</ele>
        <time>2015-02-27T09:19:48Z</time>
      </trkpt>
      <trkpt lat="43.94836" lon="0.64796">
        <ele>185.9</ele>
        <time>2015-02-27T09:20:07Z</time>
      </trkpt>
      <trkpt lat="43.94835" lon="0.6481">
        <ele>186.6</ele>
        <time>2015-02-27T09:20:17Z</time>
      </trkpt>
      <trkpt lat="43.94831" lon="0.64809">
        <ele>187.4</ele>
        <time>2015-02-27T09:20:21Z</time>
      </trkpt>
      <trkpt lat="43.94835" lon="0.6481">
        <ele>187.9</ele>
        <time>2015-02-27T09:20:25Z</time>
      </trkpt>
      <trkpt lat="43.94831" lon="0.64819">
        <ele>188.5</ele>
        <time>2015-02-27T09:20:32Z</time>
      </trkpt>
      <trkpt lat="43.94831" lon="0.64833">
        <ele>189.6</ele>
        <time>2015-02-27T09:20:42Z</time>
      </trkpt>
      <trkpt lat="43.94828" lon="0.64845">
        <ele>190.3</ele>
        <time>2015-02-27T09:20:51Z</time>
      </trkpt>
      <trkpt lat="43.94829" lon="0.64857">
        <ele>190.9</ele>
        <time>2015-02-27T09:20:59Z</time>
      </trkpt>
      <trkpt lat="43.94834" lon="0.64859">
        <ele>191.5</ele>
        <time>2015-02-27T09:21:04Z</time>
      </trkpt>
      <trkpt lat="43.94833" lon="0.64871">
        <ele>192.2</ele>
        <time>2015-02-27T09:21:12Z</time>
      </trkpt>
      <trkpt lat="43.94837" lon="0.64891">
        <ele>192.3</ele>
        <time>2015-02-27T09:21:26Z</time>
      </trkpt>
      <trkpt lat="43.94833" lon="0.64913">
        <ele>192.4</ele>
        <time>2015-02-27T09:21:42Z</time>
      </trkpt>
      <trkpt lat="43.94831" lon="0.6494">
        <ele>192.5</ele>
        <time>2015-02-27T09:22:00Z</time>
      </trkpt>
      <trkpt lat="43.9483" lon="0.64963">
        <ele>192.6</ele>
        <time>2015-02-27T09:22:16Z</time>
      </trkpt>
      <trkpt lat="43.94799" lon="0.64963">
        <ele>193.1</ele>
        <time>2015-02-27T09:22:46Z</time>
      </trkpt>
      <trkpt lat="43.94772" lon="0.64966">
        <ele>193.5</ele>
        <time>2015-02-27T09:23:12Z</time>
      </trkpt>
      <trkpt lat="43.94744" lon="0.64961">
        <ele>193.4</ele>
        <time>2015-02-27T09:23:38Z</time>
      </trkpt>
      <trkpt lat="43.94721" lon="0.64952">
        <ele>193.2</ele>
        <time>2015-02-27T09:24:01Z</time>
      </trkpt>
      <trkpt lat="43.94671" lon="0.64931">
        <ele>193.4</ele>
        <time>2015-02-27T09:24:51Z</time>
      </trkpt>
      <trkpt lat="43.9462" lon="0.64899">
        <ele>193.5</ele>
        <time>2015-02-27T09:25:44Z</time>
      </trkpt>
      <trkpt lat="43.94591" lon="0.64874">
        <ele>193.5</ele>
        <time>2015-02-27T09:26:17Z</time>
      </trkpt>
      <trkpt lat="43.94584" lon="0.64871">
        <ele>194.2</ele>
        <time>2015-02-27T09:26:24Z</time>
      </trkpt>
      <trkpt lat="43.94546" lon="0.64854">
        <ele>194.8</ele>
        <time>2015-02-27T09:27:01Z</time>
      </trkpt>
      <trkpt lat="43.94508" lon="0.64849">
        <ele>195.5</ele>
        <time>2015-02-27T09:27:38Z</time>
      </trkpt>
      <trkpt lat="43.94455" lon="0.64853">
        <ele>196</ele>
        <time>2015-02-27T09:28:28Z</time>
      </trkpt>
      <trkpt lat="43.94429" lon="0.64851">
        <ele>196.3</ele>
        <time>2015-02-27T09:28:53Z</time>
      </trkpt>
      <trkpt lat="43.94408" lon="0.64844">
        <ele>195.6</ele>
        <time>2015-02-27T09:29:14Z</time>
      </trkpt>
      <trkpt lat="43.94407" lon="0.64845">
        <ele>195</ele>
        <time>2015-02-27T09:29:15Z</time>
      </trkpt>
      <trkpt lat="43.94408" lon="0.64844">
        <ele>193.7</ele>
        <time>2015-02-27T09:29:16Z</time>
      </trkpt>
      <trkpt lat="43.94401" lon="0.64839">
        <ele>192.1</ele>
        <time>2015-02-27T09:29:23Z</time>
      </trkpt>
      <trkpt lat="43.94385" lon="0.64846">
        <ele>190.5</ele>
        <time>2015-02-27T09:29:39Z</time>
      </trkpt>
      <trkpt lat="43.94357" lon="0.64854">
        <ele>188.6</ele>
        <time>2015-02-27T09:30:07Z</time>
      </trkpt>
      <trkpt lat="43.94318" lon="0.64865">
        <ele>186.7</ele>
        <time>2015-02-27T09:30:44Z</time>
      </trkpt>
      <trkpt lat="43.94278" lon="0.64875">
        <ele>184.8</ele>
        <time>2015-02-27T09:31:23Z</time>
      </trkpt>
      <trkpt lat="43.94241" lon="0.64885">
        <ele>182.9</ele>
        <time>2015-02-27T09:31:58Z</time>
      </trkpt>
      <trkpt lat="43.94235" lon="0.64888">
        <ele>181</ele>
        <time>2015-02-27T09:32:05Z</time>
      </trkpt>
      <trkpt lat="43.94202" lon="0.64906">
        <ele>178.5</ele>
        <time>2015-02-27T09:32:38Z</time>
      </trkpt>
      <trkpt lat="43.94189" lon="0.64917">
        <ele>176.8</ele>
        <time>2015-02-27T09:32:53Z</time>
      </trkpt>
      <trkpt lat="43.94182" lon="0.64923">
        <ele>175.2</ele>
        <time>2015-02-27T09:33:01Z</time>
      </trkpt>
      <trkpt lat="43.94155" lon="0.64941">
        <ele>174.2</ele>
        <time>2015-02-27T09:33:29Z</time>
      </trkpt>
      <trkpt lat="43.9413" lon="0.64956">
        <ele>173.2</ele>
        <time>2015-02-27T09:33:56Z</time>
      </trkpt>
      <trkpt lat="43.94111" lon="0.64972">
        <ele>172.2</ele>
        <time>2015-02-27T09:34:16Z</time>
      </trkpt>
      <trkpt lat="43.94089" lon="0.64999">
        <ele>171.5</ele>
        <time>2015-02-27T09:34:45Z</time>
      </trkpt>
      <trkpt lat="43.94076" lon="0.65012">
        <ele>170.6</ele>
        <time>2015-02-27T09:35:00Z</time>
      </trkpt>
      <trkpt lat="43.94066" lon="0.65016">
        <ele>169.7</ele>
        <time>2015-02-27T09:35:09Z</time>
      </trkpt>
      <trkpt lat="43.94062" lon="0.65016">
        <ele>168.8</ele>
        <time>2015-02-27T09:35:14Z</time>
      </trkpt>
      <trkpt lat="43.94056" lon="0.65015">
        <ele>167.9</ele>
        <time>2015-02-27T09:35:19Z</time>
      </trkpt>
      <trkpt lat="43.94051" lon="0.65015">
        <ele>167.6</ele>
        <time>2015-02-27T09:35:24Z</time>
      </trkpt>
      <trkpt lat="43.9404" lon="0.65008">
        <ele>167.3</ele>
        <time>2015-02-27T09:35:35Z</time>
      </trkpt>
      <trkpt lat="43.94029" lon="0.65002">
        <ele>167</ele>
        <time>2015-02-27T09:35:47Z</time>
      </trkpt>
      <trkpt lat="43.93999" lon="0.64984">
        <ele>166.7</ele>
        <time>2015-02-27T09:36:18Z</time>
      </trkpt>
      <trkpt lat="43.93981" lon="0.64974">
        <ele>166.8</ele>
        <time>2015-02-27T09:36:36Z</time>
      </trkpt>
      <trkpt lat="43.93976" lon="0.64974">
        <ele>166.9</ele>
        <time>2015-02-27T09:36:41Z</time>
      </trkpt>
      <trkpt lat="43.93976" lon="0.6497">
        <ele>167</ele>
        <time>2015-02-27T09:36:43Z</time>
      </trkpt>
      <trkpt lat="43.93976" lon="0.64974">
        <ele>168</ele>
        <time>2015-02-27T09:36:46Z</time>
      </trkpt>
      <trkpt lat="43.93963" lon="0.64973">
        <ele>169</ele>
        <time>2015-02-27T09:36:58Z</time>
      </trkpt>
      <trkpt lat="43.93941" lon="0.64984">
        <ele>170.1</ele>
        <time>2015-02-27T09:37:21Z</time>
      </trkpt>
      <trkpt lat="43.93904" lon="0.6501">
        <ele>171.5</ele>
        <time>2015-02-27T09:38:00Z</time>
      </trkpt>
      <trkpt lat="43.93882" lon="0.65028">
        <ele>173.1</ele>
        <time>2015-02-27T09:38:25Z</time>
      </trkpt>
      <trkpt lat="43.93857" lon="0.65044">
        <ele>175</ele>
        <time>2015-02-27T09:38:51Z</time>
      </trkpt>
      <trkpt lat="43.93838" lon="0.65048">
        <ele>176.8</ele>
        <time>2015-02-27T09:39:09Z</time>
      </trkpt>
      <trkpt lat="43.93821" lon="0.6506">
        <ele>178.9</ele>
        <time>2015-02-27T09:39:27Z</time>
      </trkpt>
      <trkpt lat="43.93745" lon="0.65138">
        <ele>180.6</ele>
        <time>2015-02-27T09:40:57Z</time>
      </trkpt>
      <trkpt lat="43.93688" lon="0.65197">
        <ele>182.4</ele>
        <time>2015-02-27T09:42:05Z</time>
      </trkpt>
      <trkpt lat="43.93667" lon="0.65224">
        <ele>184.1</ele>
        <time>2015-02-27T09:42:32Z</time>
      </trkpt>
      <trkpt lat="43.93654" lon="0.65234">
        <ele>185.2</ele>
        <time>2015-02-27T09:42:46Z</time>
      </trkpt>
      <trkpt lat="43.93616" lon="0.65249">
        <ele>186.3</ele>
        <time>2015-02-27T09:43:24Z</time>
      </trkpt>
      <trkpt lat="43.93589" lon="0.65255">
        <ele>187.5</ele>
        <time>2015-02-27T09:43:50Z</time>
      </trkpt>
      <trkpt lat="43.93589" lon="0.65253">
        <ele>188.5</ele>
        <time>2015-02-27T09:43:52Z</time>
      </trkpt>
      <trkpt lat="43.93589" lon="0.65255">
        <ele>189.3</ele>
        <time>2015-02-27T09:43:53Z</time>
      </trkpt>
      <trkpt lat="43.9358" lon="0.65257">
        <ele>190.2</ele>
        <time>2015-02-27T09:44:01Z</time>
      </trkpt>
      <trkpt lat="43.93581" lon="0.65264">
        <ele>191.1</ele>
        <time>2015-02-27T09:44:06Z</time>
      </trkpt>
      <trkpt lat="43.93528" lon="0.65264">
        <ele>191.7</ele>
        <time>2015-02-27T09:44:56Z</time>
      </trkpt>
      <trkpt lat="43.93485" lon="0.65265">
        <ele>192.4</ele>
        <time>2015-02-27T09:45:37Z</time>
      </trkpt>
      <trkpt lat="43.93472" lon="0.65266">
        <ele>193</ele>
        <time>2015-02-27T09:45:50Z</time>
      </trkpt>
      <trkpt lat="43.9343" lon="0.65268">
        <ele>193.6</ele>
        <time>2015-02-27T09:46:29Z</time>
      </trkpt>
      <trkpt lat="43.93394" lon="0.65272">
        <ele>194.3</ele>
        <time>2015-02-27T09:47:04Z</time>
      </trkpt>
      <trkpt lat="43.93375" lon="0.65274">
        <ele>194.9</ele>
        <time>2015-02-27T09:47:22Z</time>
      </trkpt>
      <trkpt lat="43.93366" lon="0.65275">
        <ele>195.3</ele>
        <time>2015-02-27T09:47:31Z</time>
      </trkpt>
      <trkpt lat="43.9336" lon="0.65275">
        <ele>195.6</ele>
        <time>2015-02-27T09:47:36Z</time>
      </trkpt>
      <trkpt lat="43.93354" lon="0.65274">
        <ele>196</ele>
        <time>2015-02-27T09:47:42Z</time>
      </trkpt>
      <trkpt lat="43.93345" lon="0.65273">
        <ele>196</ele>
        <time>2015-02-27T09:47:51Z</time>
      </trkpt>
      <trkpt lat="43.93335" lon="0.65262">
        <ele>196</ele>
        <time>2015-02-27T09:48:03Z</time>
      </trkpt>
      <trkpt lat="43.9333" lon="0.65259">
        <ele>196</ele>
        <time>2015-02-27T09:48:08Z</time>
      </trkpt>
      <trkpt lat="43.93325" lon="0.65256">
        <ele>196</ele>
        <time>2015-02-27T09:48:13Z</time>
      </trkpt>
      <trkpt lat="43.93317" lon="0.65254">
        <ele>196.1</ele>
        <time>2015-02-27T09:48:21Z</time>
      </trkpt>
      <trkpt lat="43.93317" lon="0.65255">
        <ele>195.6</ele>
        <time>2015-02-27T09:48:22Z</time>
      </trkpt>
      <trkpt lat="43.93317" lon="0.65254">
        <ele>195.2</ele>
        <time>2015-02-27T09:48:23Z</time>
      </trkpt>
      <trkpt lat="43.93315" lon="0.65253">
        <ele>195.2</ele>
        <time>2015-02-27T09:48:24Z</time>
      </trkpt>
      <trkpt lat="43.93314" lon="0.65268">
        <ele>195.2</ele>
        <time>2015-02-27T09:48:34Z</time>
      </trkpt>
      <trkpt lat="43.93299" lon="0.65339">
        <ele>195.2</ele>
        <time>2015-02-27T09:49:25Z</time>
      </trkpt>
      <trkpt lat="43.93297" lon="0.65347">
        <ele>195.2</ele>
        <time>2015-02-27T09:49:31Z</time>
      </trkpt>
      <trkpt lat="43.93293" lon="0.65366">
        <ele>195.2</ele>
        <time>2015-02-27T09:49:44Z</time>
      </trkpt>
      <trkpt lat="43.93287" lon="0.65397">
        <ele>195.2</ele>
        <time>2015-02-27T09:50:06Z</time>
      </trkpt>
      <trkpt lat="43.93276" lon="0.65425">
        <ele>194.1</ele>
        <time>2015-02-27T09:50:29Z</time>
      </trkpt>
      <trkpt lat="43.93272" lon="0.65422">
        <ele>193</ele>
        <time>2015-02-27T09:50:33Z</time>
      </trkpt>
      <trkpt lat="43.9327" lon="0.65424">
        <ele>191.8</ele>
        <time>2015-02-27T09:50:35Z</time>
      </trkpt>
      <trkpt lat="43.93272" lon="0.65422">
        <ele>191.2</ele>
        <time>2015-02-27T09:50:38Z</time>
      </trkpt>
      <trkpt lat="43.93236" lon="0.65394">
        <ele>190</ele>
        <time>2015-02-27T09:51:16Z</time>
      </trkpt>
      <trkpt lat="43.9319" lon="0.65355">
        <ele>188.5</ele>
        <time>2015-02-27T09:52:08Z</time>
      </trkpt>
      <trkpt lat="43.9315" lon="0.65324">
        <ele>187.1</ele>
        <time>2015-02-27T09:52:52Z</time>
      </trkpt>
      <trkpt lat="43.93144" lon="0.65321">
        <ele>185.6</ele>
        <time>2015-02-27T09:52:58Z</time>
      </trkpt>
      <trkpt lat="43.93129" lon="0.65313">
        <ele>184.2</ele>
        <time>2015-02-27T09:53:13Z</time>
      </trkpt>
      <trkpt lat="43.93083" lon="0.65293">
        <ele>182.7</ele>
        <time>2015-02-27T09:53:59Z</time>
      </trkpt>
      <trkpt lat="43.93035" lon="0.65276">
        <ele>181.3</ele>
        <time>2015-02-27T09:54:46Z</time>
      </trkpt>
      <trkpt lat="43.92999" lon="0.65262">
        <ele>180.9</ele>
        <time>2015-02-27T09:55:22Z</time>
      </trkpt>
      <trkpt lat="43.92991" lon="0.65255">
        <ele>180.3</ele>
        <time>2015-02-27T09:55:31Z</time>
      </trkpt>
      <trkpt lat="43.92987" lon="0.65245">
        <ele>179.6</ele>
        <time>2015-02-27T09:55:38Z</time>
      </trkpt>
      <trkpt lat="43.92986" lon="0.65246">
        <ele>179</ele>
        <time>2015-02-27T09:55:40Z</time>
      </trkpt>
      <trkpt lat="43.92987" lon="0.65245">
        <ele>178.9</ele>
        <time>2015-02-27T09:55:41Z</time>
      </trkpt>
      <trkpt lat="43.92989" lon="0.65228">
        <ele>178.6</ele>
        <time>2015-02-27T09:55:53Z</time>
      </trkpt>
      <trkpt lat="43.92995" lon="0.65212">
        <ele>178.4</ele>
        <time>2015-02-27T09:56:06Z</time>
      </trkpt>
      <trkpt lat="43.93003" lon="0.65184">
        <ele>178.1</ele>
        <time>2015-02-27T09:56:26Z</time>
      </trkpt>
      <trkpt lat="43.93005" lon="0.65169">
        <ele>178</ele>
        <time>2015-02-27T09:56:36Z</time>
      </trkpt>
      <trkpt lat="43.93003" lon="0.65164">
        <ele>177.9</ele>
        <time>2015-02-27T09:56:40Z</time>
      </trkpt>
      <trkpt lat="43.93004" lon="0.65163">
        <ele>177.9</ele>
        <time>2015-02-27T09:56:42Z</time>
      </trkpt>
      <trkpt lat="43.93003" lon="0.65164">
        <ele>177.9</ele>
        <time>2015-02-27T09:56:44Z</time>
      </trkpt>
      <trkpt lat="43.92987" lon="0.65158">
        <ele>178.2</ele>
        <time>2015-02-27T09:56:59Z</time>
      </trkpt>
      <trkpt lat="43.92928" lon="0.6515">
        <ele>178.5</ele>
        <time>2015-02-27T09:57:56Z</time>
      </trkpt>
      <trkpt lat="43.92892" lon="0.65144">
        <ele>178.7</ele>
        <time>2015-02-27T09:58:31Z</time>
      </trkpt>
      <trkpt lat="43.92867" lon="0.6514">
        <ele>179</ele>
        <time>2015-02-27T09:58:55Z</time>
      </trkpt>
      <trkpt lat="43.9285" lon="0.6514">
        <ele>179</ele>
        <time>2015-02-27T09:59:11Z</time>
      </trkpt>
      <trkpt lat="43.9285" lon="0.65137">
        <ele>179</ele>
        <time>2015-02-27T09:59:13Z</time>
      </trkpt>
      <trkpt lat="43.9285" lon="0.6514">
        <ele>179</ele>
        <time>2015-02-27T09:59:15Z</time>
      </trkpt>
      <trkpt lat="43.92812" lon="0.65164">
        <ele>178.8</ele>
        <time>2015-02-27T09:59:55Z</time>
      </trkpt>
      <trkpt lat="43.928" lon="0.65181">
        <ele>178.8</ele>
        <time>2015-02-27T10:00:11Z</time>
      </trkpt>
      <trkpt lat="43.92778" lon="0.65218">
        <ele>178.5</ele>
        <time>2015-02-27T10:00:44Z</time>
      </trkpt>
      <trkpt lat="43.92758" lon="0.6524">
        <ele>178.1</ele>
        <time>2015-02-27T10:01:08Z</time>
      </trkpt>
      <trkpt lat="43.92744" lon="0.65281">
        <ele>177.7</ele>
        <time>2015-02-27T10:01:40Z</time>
      </trkpt>
      <trkpt lat="43.9274" lon="0.65298">
        <ele>177.6</ele>
        <time>2015-02-27T10:01:52Z</time>
      </trkpt>
      <trkpt lat="43.92728" lon="0.65311">
        <ele>177.5</ele>
        <time>2015-02-27T10:02:06Z</time>
      </trkpt>
      <trkpt lat="43.92702" lon="0.65313">
        <ele>177.5</ele>
        <time>2015-02-27T10:02:30Z</time>
      </trkpt>
      <trkpt lat="43.92662" lon="0.6532">
        <ele>177.6</ele>
        <time>2015-02-27T10:03:10Z</time>
      </trkpt>
      <trkpt lat="43.92627" lon="0.65328">
        <ele>178.1</ele>
        <time>2015-02-27T10:03:43Z</time>
      </trkpt>
      <trkpt lat="43.92596" lon="0.65325">
        <ele>178.5</ele>
        <time>2015-02-27T10:04:12Z</time>
      </trkpt>
      <trkpt lat="43.9257" lon="0.65324">
        <ele>179</ele>
        <time>2015-02-27T10:04:38Z</time>
      </trkpt>
      <trkpt lat="43.92547" lon="0.6532">
        <ele>179.3</ele>
        <time>2015-02-27T10:04:59Z</time>
      </trkpt>
      <trkpt lat="43.92547" lon="0.6532">
        <ele>179.8</ele>
        <time>2015-02-27T10:05:00Z</time>
      </trkpt>
      <trkpt lat="43.92544" lon="0.6532">
        <ele>180.4</ele>
        <time>2015-02-27T10:05:03Z</time>
      </trkpt>
      <trkpt lat="43.92539" lon="0.65323">
        <ele>181</ele>
        <time>2015-02-27T10:05:08Z</time>
      </trkpt>
      <trkpt lat="43.92533" lon="0.65341">
        <ele>181.4</ele>
        <time>2015-02-27T10:05:21Z</time>
      </trkpt>
      <trkpt lat="43.92523" lon="0.65347">
        <ele>181.6</ele>
        <time>2015-02-27T10:05:32Z</time>
      </trkpt>
      <trkpt lat="43.92511" lon="0.65356">
        <ele>181.9</ele>
        <time>2015-02-27T10:05:45Z</time>
      </trkpt>
      <trkpt lat="43.92505" lon="0.65363">
        <ele>181.5</ele>
        <time>2015-02-27T10:05:53Z</time>
      </trkpt>
      <trkpt lat="43.92502" lon="0.65382">
        <ele>180.9</ele>
        <time>2015-02-27T10:06:06Z</time>
      </trkpt>
      <trkpt lat="43.92505" lon="0.65419">
        <ele>180.3</ele>
        <time>2015-02-27T10:06:31Z</time>
      </trkpt>
      <trkpt lat="43.92507" lon="0.65466">
        <ele>178.9</ele>
        <time>2015-02-27T10:07:03Z</time>
      </trkpt>
      <trkpt lat="43.92505" lon="0.65512">
        <ele>177.5</ele>
        <time>2015-02-27T10:07:35Z</time>
      </trkpt>
      <trkpt lat="43.92494" lon="0.6557">
        <ele>176.2</ele>
        <time>2015-02-27T10:08:16Z</time>
      </trkpt>
      <trkpt lat="43.92495" lon="0.65599">
        <ele>174.3</ele>
        <time>2015-02-27T10:08:36Z</time>
      </trkpt>
      <trkpt lat="43.92503" lon="0.65615">
        <ele>173.2</ele>
        <time>2015-02-27T10:08:50Z</time>
      </trkpt>
      <trkpt lat="43.92512" lon="0.65637">
        <ele>172.1</ele>
        <time>2015-02-27T10:09:07Z</time>
      </trkpt>
      <trkpt lat="43.92525" lon="0.65661">
        <ele>171.1</ele>
        <time>2015-02-27T10:09:28Z</time>
      </trkpt>
      <trkpt lat="43.92535" lon="0.65697">
        <ele>170.1</ele>
        <time>2015-02-27T10:09:54Z</time>
      </trkpt>
      <trkpt lat="43.92541" lon="0.6573">
        <ele>169.5</ele>
        <time>2015-02-27T10:10:17Z</time>
      </trkpt>
      <trkpt lat="43.92555" lon="0.6574">
        <ele>167.9</ele>
        <time>2015-02-27T10:10:33Z</time>
      </trkpt>
      <trkpt lat="43.92574" lon="0.65753">
        <ele>166.6</ele>
        <time>2015-02-27T10:10:53Z</time>
      </trkpt>
      <trkpt lat="43.92592" lon="0.65766">
        <ele>166.1</ele>
        <time>2015-02-27T10:11:12Z</time>
      </trkpt>
      <trkpt lat="43.92619" lon="0.6578">
        <ele>165.5</ele>
        <time>2015-02-27T10:11:39Z</time>
      </trkpt>
      <trkpt lat="43.92644" lon="0.65792">
        <ele>165</ele>
        <time>2015-02-27T10:12:04Z</time>
      </trkpt>
      <trkpt lat="43.92655" lon="0.65803">
        <ele>165.6</ele>
        <time>2015-02-27T10:12:17Z</time>
      </trkpt>
      <trkpt lat="43.92717" lon="0.65905">
        <ele>165.5</ele>
        <time>2015-02-27T10:13:49Z</time>
      </trkpt>
      <trkpt lat="43.92763" lon="0.66047">
        <ele>165.5</ele>
        <time>2015-02-27T10:15:36Z</time>
      </trkpt>
      <trkpt lat="43.92763" lon="0.66045">
        <ele>165.4</ele>
        <time>2015-02-27T10:15:37Z</time>
      </trkpt>
      <trkpt lat="43.92769" lon="0.66048">
        <ele>165.3</ele>
        <time>2015-02-27T10:15:43Z</time>
      </trkpt>
      <trkpt lat="43.92795" lon="0.66064">
        <ele>165.5</ele>
        <time>2015-02-27T10:16:09Z</time>
      </trkpt>
      <trkpt lat="43.92807" lon="0.66076">
        <ele>166.5</ele>
        <time>2015-02-27T10:16:23Z</time>
      </trkpt>
      <trkpt lat="43.9282" lon="0.66095">
        <ele>167.4</ele>
        <time>2015-02-27T10:16:42Z</time>
      </trkpt>
      <trkpt lat="43.92828" lon="0.66102">
        <ele>169</ele>
        <time>2015-02-27T10:16:51Z</time>
      </trkpt>
      <trkpt lat="43.9281" lon="0.66125">
        <ele>170.6</ele>
        <time>2015-02-27T10:17:14Z</time>
      </trkpt>
      <trkpt lat="43.92794" lon="0.66145">
        <ele>172.6</ele>
        <time>2015-02-27T10:17:34Z</time>
      </trkpt>
      <trkpt lat="43.92777" lon="0.66166">
        <ele>174</ele>
        <time>2015-02-27T10:17:56Z</time>
      </trkpt>
      <trkpt lat="43.92748" lon="0.66199">
        <ele>174.6</ele>
        <time>2015-02-27T10:18:32Z</time>
      </trkpt>
      <trkpt lat="43.92724" lon="0.66228">
        <ele>175.9</ele>
        <time>2015-02-27T10:19:02Z</time>
      </trkpt>
      <trkpt lat="43.92712" lon="0.66245">
        <ele>176.8</ele>
        <time>2015-02-27T10:19:18Z</time>
      </trkpt>
      <trkpt lat="43.92668" lon="0.66311">
        <ele>177.7</ele>
        <time>2015-02-27T10:20:20Z</time>
      </trkpt>
      <trkpt lat="43.92628" lon="0.66373">
        <ele>178.6</ele>
        <time>2015-02-27T10:21:17Z</time>
      </trkpt>
      <trkpt lat="43.92597" lon="0.66417">
        <ele>179.7</ele>
        <time>2015-02-27T10:22:00Z</time>
      </trkpt>
      <trkpt lat="43.92562" lon="0.66472">
        <ele>180.8</ele>
        <time>2015-02-27T10:22:50Z</time>
      </trkpt>
      <trkpt lat="43.92543" lon="0.665">
        <ele>180.1</ele>
        <time>2015-02-27T10:23:16Z</time>
      </trkpt>
      <trkpt lat="43.92539" lon="0.6651">
        <ele>179.7</ele>
        <time>2015-02-27T10:23:24Z</time>
      </trkpt>
      <trkpt lat="43.92537" lon="0.66511">
        <ele>179</ele>
        <time>2015-02-27T10:23:26Z</time>
      </trkpt>
      <trkpt lat="43.92383" lon="0.66652">
        <ele>178.3</ele>
        <time>2015-02-27T10:26:21Z</time>
      </trkpt>
      <trkpt lat="43.92387" lon="0.66652">
        <ele>178.6</ele>
        <time>2015-02-27T10:26:25Z</time>
      </trkpt>
      <trkpt lat="43.92376" lon="0.66694">
        <ele>178.4</ele>
        <time>2015-02-27T10:26:56Z</time>
      </trkpt>
      <trkpt lat="43.92369" lon="0.66723">
        <ele>178.5</ele>
        <time>2015-02-27T10:27:17Z</time>
      </trkpt>
      <trkpt lat="43.92373" lon="0.66768">
        <ele>178.7</ele>
        <time>2015-02-27T10:27:47Z</time>
      </trkpt>
      <trkpt lat="43.92375" lon="0.66791">
        <ele>179</ele>
        <time>2015-02-27T10:28:03Z</time>
      </trkpt>
      <trkpt lat="43.92373" lon="0.66811">
        <ele>178.5</ele>
        <time>2015-02-27T10:28:17Z</time>
      </trkpt>
      <trkpt lat="43.92357" lon="0.66849">
        <ele>177.9</ele>
        <time>2015-02-27T10:28:48Z</time>
      </trkpt>
      <trkpt lat="43.92337" lon="0.66888">
        <ele>178.4</ele>
        <time>2015-02-27T10:29:20Z</time>
      </trkpt>
      <trkpt lat="43.92331" lon="0.66909">
        <ele>178.2</ele>
        <time>2015-02-27T10:29:36Z</time>
      </trkpt>
      <trkpt lat="43.92306" lon="0.66952">
        <ele>178.1</ele>
        <time>2015-02-27T10:30:13Z</time>
      </trkpt>
      <trkpt lat="43.92283" lon="0.66987">
        <ele>177.7</ele>
        <time>2015-02-27T10:30:46Z</time>
      </trkpt>
      <trkpt lat="43.92265" lon="0.67008">
        <ele>177.2</ele>
        <time>2015-02-27T10:31:08Z</time>
      </trkpt>
      <trkpt lat="43.92213" lon="0.6703">
        <ele>177.6</ele>
        <time>2015-02-27T10:32:00Z</time>
      </trkpt>
      <trkpt lat="43.92171" lon="0.67046">
        <ele>178.1</ele>
        <time>2015-02-27T10:32:42Z</time>
      </trkpt>
      <trkpt lat="43.92133" lon="0.67065">
        <ele>178.4</ele>
        <time>2015-02-27T10:33:20Z</time>
      </trkpt>
      <trkpt lat="43.92106" lon="0.67077">
        <ele>178.6</ele>
        <time>2015-02-27T10:33:47Z</time>
      </trkpt>
      <trkpt lat="43.92021" lon="0.67072">
        <ele>179.5</ele>
        <time>2015-02-27T10:35:08Z</time>
      </trkpt>
      <trkpt lat="43.91959" lon="0.67071">
        <ele>180.3</ele>
        <time>2015-02-27T10:36:07Z</time>
      </trkpt>
      <trkpt lat="43.91932" lon="0.67074">
        <ele>181</ele>
        <time>2015-02-27T10:36:32Z</time>
      </trkpt>
      <trkpt lat="43.91905" lon="0.67074">
        <ele>182</ele>
        <time>2015-02-27T10:36:58Z</time>
      </trkpt>
      <trkpt lat="43.91891" lon="0.67058">
        <ele>182.9</ele>
        <time>2015-02-27T10:37:16Z</time>
      </trkpt>
      <trkpt lat="43.91874" lon="0.67045">
        <ele>183.9</ele>
        <time>2015-02-27T10:37:34Z</time>
      </trkpt>
      <trkpt lat="43.91796" lon="0.67167">
        <ele>184.5</ele>
        <time>2015-02-27T10:39:26Z</time>
      </trkpt>
      <trkpt lat="43.91797" lon="0.67166">
        <ele>184.2</ele>
        <time>2015-02-27T10:39:27Z</time>
      </trkpt>
      <trkpt lat="43.91786" lon="0.67156">
        <ele>183.4</ele>
        <time>2015-02-27T10:39:39Z</time>
      </trkpt>
      <trkpt lat="43.91766" lon="0.67142">
        <ele>181.9</ele>
        <time>2015-02-27T10:40:01Z</time>
      </trkpt>
      <trkpt lat="43.9174" lon="0.67126">
        <ele>180</ele>
        <time>2015-02-27T10:40:28Z</time>
      </trkpt>
      <trkpt lat="43.91732" lon="0.6712">
        <ele>177.7</ele>
        <time>2015-02-27T10:40:37Z</time>
      </trkpt>
      <trkpt lat="43.91719" lon="0.67111">
        <ele>175.6</ele>
        <time>2015-02-27T10:40:50Z</time>
      </trkpt>
      <trkpt lat="43.91671" lon="0.67074">
        <ele>173.5</ele>
        <time>2015-02-27T10:41:43Z</time>
      </trkpt>
      <trkpt lat="43.91548" lon="0.66981">
        <ele>171.3</ele>
        <time>2015-02-27T10:43:55Z</time>
      </trkpt>
      <trkpt lat="43.91472" lon="0.66925">
        <ele>168.7</ele>
        <time>2015-02-27T10:45:18Z</time>
      </trkpt>
      <trkpt lat="43.91373" lon="0.66878">
        <ele>166.5</ele>
        <time>2015-02-27T10:46:57Z</time>
      </trkpt>
      <trkpt lat="43.91299" lon="0.66848">
        <ele>164.5</ele>
        <time>2015-02-27T10:48:11Z</time>
      </trkpt>
      <trkpt lat="43.91275" lon="0.66823">
        <ele>162.4</ele>
        <time>2015-02-27T10:48:39Z</time>
      </trkpt>
      <trkpt lat="43.91243" lon="0.66798">
        <ele>160.8</ele>
        <time>2015-02-27T10:49:14Z</time>
      </trkpt>
      <trkpt lat="43.91212" lon="0.66778">
        <ele>159.8</ele>
        <time>2015-02-27T10:49:47Z</time>
      </trkpt>
      <trkpt lat="43.91168" lon="0.66749">
        <ele>159.1</ele>
        <time>2015-02-27T10:50:33Z</time>
      </trkpt>
      <trkpt lat="43.91126" lon="0.66718">
        <ele>158.9</ele>
        <time>2015-02-27T10:51:19Z</time>
      </trkpt>
      <trkpt lat="43.91105" lon="0.66705">
        <ele>158.7</ele>
        <time>2015-02-27T10:51:40Z</time>
      </trkpt>
      <trkpt lat="43.91006" lon="0.66659">
        <ele>158.9</ele>
        <time>2015-02-27T10:53:20Z</time>
      </trkpt>
      <trkpt lat="43.90958" lon="0.66635">
        <ele>158.5</ele>
        <time>2015-02-27T10:54:09Z</time>
      </trkpt>
      <trkpt lat="43.90903" lon="0.66607">
        <ele>158.9</ele>
        <time>2015-02-27T10:55:04Z</time>
      </trkpt>
      <trkpt lat="43.90834" lon="0.66576">
        <ele>159.4</ele>
        <time>2015-02-27T10:56:13Z</time>
      </trkpt>
      <trkpt lat="43.90802" lon="0.66564">
        <ele>159.8</ele>
        <time>2015-02-27T10:56:45Z</time>
      </trkpt>
      <trkpt lat="43.90771" lon="0.66551">
        <ele>160.8</ele>
        <time>2015-02-27T10:57:15Z</time>
      </trkpt>
      <trkpt lat="43.90626" lon="0.66514">
        <ele>162.7</ele>
        <time>2015-02-27T10:59:36Z</time>
      </trkpt>
      <trkpt lat="43.90528" lon="0.66525">
        <ele>164.5</ele>
        <time>2015-02-27T11:01:09Z</time>
      </trkpt>
      <trkpt lat="43.90451" lon="0.66491">
        <ele>166.7</ele>
        <time>2015-02-27T11:02:26Z</time>
      </trkpt>
      <trkpt lat="43.90375" lon="0.66482">
        <ele>168.7</ele>
        <time>2015-02-27T11:03:38Z</time>
      </trkpt>
      <trkpt lat="43.90245" lon="0.66463">
        <ele>170.7</ele>
        <time>2015-02-27T11:05:43Z</time>
      </trkpt>
      <trkpt lat="43.90085" lon="0.66504">
        <ele>171.6</ele>
        <time>2015-02-27T11:08:18Z</time>
      </trkpt>
      <trkpt lat="43.90024" lon="0.66495">
        <ele>173.1</ele>
        <time>2015-02-27T11:09:16Z</time>
      </trkpt>
      <trkpt lat="43.89984" lon="0.66665">
        <ele>174.2</ele>
        <time>2015-02-27T11:11:19Z</time>
      </trkpt>
      <trkpt lat="43.89981" lon="0.66671">
        <ele>173.5</ele>
        <time>2015-02-27T11:11:24Z</time>
      </trkpt>
      <trkpt lat="43.8997" lon="0.66666">
        <ele>172.8</ele>
        <time>2015-02-27T11:11:34Z</time>
      </trkpt>
      <trkpt lat="43.89946" lon="0.66663">
        <ele>171.5</ele>
        <time>2015-02-27T11:11:58Z</time>
      </trkpt>
      <trkpt lat="43.89931" lon="0.66655">
        <ele>169.3</ele>
        <time>2015-02-27T11:12:13Z</time>
      </trkpt>
      <trkpt lat="43.89916" lon="0.66641">
        <ele>166.3</ele>
        <time>2015-02-27T11:12:29Z</time>
      </trkpt>
      <trkpt lat="43.8986" lon="0.6657">
        <ele>162.2</ele>
        <time>2015-02-27T11:13:42Z</time>
      </trkpt>
      <trkpt lat="43.89844" lon="0.66556">
        <ele>158.1</ele>
        <time>2015-02-27T11:14:00Z</time>
      </trkpt>
      <trkpt lat="43.89827" lon="0.6655">
        <ele>153.3</ele>
        <time>2015-02-27T11:14:17Z</time>
      </trkpt>
      <trkpt lat="43.89812" lon="0.66547">
        <ele>149.3</ele>
        <time>2015-02-27T11:14:31Z</time>
      </trkpt>
      <trkpt lat="43.8978" lon="0.66543">
        <ele>145.5</ele>
        <time>2015-02-27T11:15:01Z</time>
      </trkpt>
      <trkpt lat="43.89653" lon="0.66513">
        <ele>141.2</ele>
        <time>2015-02-27T11:17:04Z</time>
      </trkpt>
      <trkpt lat="43.89637" lon="0.66504">
        <ele>138.4</ele>
        <time>2015-02-27T11:17:20Z</time>
      </trkpt>
      <trkpt lat="43.89607" lon="0.66479">
        <ele>135.5</ele>
        <time>2015-02-27T11:17:54Z</time>
      </trkpt>
      <trkpt lat="43.89591" lon="0.66472">
        <ele>131.4</ele>
        <time>2015-02-27T11:18:10Z</time>
      </trkpt>
      <trkpt lat="43.89552" lon="0.6646">
        <ele>126.6</ele>
        <time>2015-02-27T11:18:48Z</time>
      </trkpt>
      <trkpt lat="43.89455" lon="0.66417">
        <ele>121.7</ele>
        <time>2015-02-27T11:20:25Z</time>
      </trkpt>
      <trkpt lat="43.89436" lon="0.66405">
        <ele>117.7</ele>
        <time>2015-02-27T11:20:45Z</time>
      </trkpt>
      <trkpt lat="43.89421" lon="0.66386">
        <ele>113.4</ele>
        <time>2015-02-27T11:21:04Z</time>
      </trkpt>
      <trkpt lat="43.89372" lon="0.66308">
        <ele>109.7</ele>
        <time>2015-02-27T11:22:15Z</time>
      </trkpt>
      <trkpt lat="43.89345" lon="0.66273">
        <ele>106</ele>
        <time>2015-02-27T11:22:51Z</time>
      </trkpt>
      <trkpt lat="43.89248" lon="0.66154">
        <ele>101.9</ele>
        <time>2015-02-27T11:24:53Z</time>
      </trkpt>
      <trkpt lat="43.89222" lon="0.66187">
        <ele>98.3</ele>
        <time>2015-02-27T11:25:27Z</time>
      </trkpt>
      <trkpt lat="43.89204" lon="0.66213">
        <ele>94.5</ele>
        <time>2015-02-27T11:25:52Z</time>
      </trkpt>
      <trkpt lat="43.89182" lon="0.66158">
        <ele>90.6</ele>
        <time>2015-02-27T11:26:35Z</time>
      </trkpt>
      <trkpt lat="43.89157" lon="0.66106">
        <ele>88.3</ele>
        <time>2015-02-27T11:27:18Z</time>
      </trkpt>
      <trkpt lat="43.89079" lon="0.65997">
        <ele>86.5</ele>
        <time>2015-02-27T11:29:03Z</time>
      </trkpt>
      <trkpt lat="43.89048" lon="0.65975">
        <ele>85.7</ele>
        <time>2015-02-27T11:29:36Z</time>
      </trkpt>
      <trkpt lat="43.88998" lon="0.65959">
        <ele>85</ele>
        <time>2015-02-27T11:30:25Z</time>
      </trkpt>
      <trkpt lat="43.88981" lon="0.65948">
        <ele>84.6</ele>
        <time>2015-02-27T11:30:43Z</time>
      </trkpt>
      <trkpt lat="43.889" lon="0.65836">
        <ele>84.3</ele>
        <time>2015-02-27T11:32:31Z</time>
      </trkpt>
      <trkpt lat="43.88871" lon="0.65745">
        <ele>84.2</ele>
        <time>2015-02-27T11:33:40Z</time>
      </trkpt>
      <trkpt lat="43.88835" lon="0.65698">
        <ele>84.2</ele>
        <time>2015-02-27T11:34:27Z</time>
      </trkpt>
      <trkpt lat="43.88822" lon="0.65676">
        <ele>84.1</ele>
        <time>2015-02-27T11:34:47Z</time>
      </trkpt>
      <trkpt lat="43.8882" lon="0.65665">
        <ele>84.5</ele>
        <time>2015-02-27T11:34:54Z</time>
      </trkpt>
      <trkpt lat="43.88823" lon="0.65635">
        <ele>85</ele>
        <time>2015-02-27T11:35:15Z</time>
      </trkpt>
      <trkpt lat="43.88823" lon="0.65515">
        <ele>85.5</ele>
        <time>2015-02-27T11:36:37Z</time>
      </trkpt>
      <trkpt lat="43.88808" lon="0.65447">
        <ele>86.2</ele>
        <time>2015-02-27T11:37:26Z</time>
      </trkpt>
      <trkpt lat="43.88793" lon="0.65391">
        <ele>86.9</ele>
        <time>2015-02-27T11:38:07Z</time>
      </trkpt>
      <trkpt lat="43.88672" lon="0.6506">
        <ele>87.6</ele>
        <time>2015-02-27T11:42:22Z</time>
      </trkpt>
      <trkpt lat="43.88667" lon="0.65036">
        <ele>88.4</ele>
        <time>2015-02-27T11:42:39Z</time>
      </trkpt>
      <trkpt lat="43.88664" lon="0.65015">
        <ele>89.1</ele>
        <time>2015-02-27T11:42:54Z</time>
      </trkpt>
      <trkpt lat="43.88655" lon="0.64904">
        <ele>89.5</ele>
        <time>2015-02-27T11:44:10Z</time>
      </trkpt>
      <trkpt lat="43.88654" lon="0.64886">
        <ele>90.4</ele>
        <time>2015-02-27T11:44:23Z</time>
      </trkpt>
      <trkpt lat="43.88654" lon="0.64856">
        <ele>91.3</ele>
        <time>2015-02-27T11:44:44Z</time>
      </trkpt>
      <trkpt lat="43.8865" lon="0.64829">
        <ele>91.9</ele>
        <time>2015-02-27T11:45:02Z</time>
      </trkpt>
      <trkpt lat="43.88644" lon="0.64807">
        <ele>92.4</ele>
        <time>2015-02-27T11:45:19Z</time>
      </trkpt>
      <trkpt lat="43.88638" lon="0.6479">
        <ele>92.8</ele>
        <time>2015-02-27T11:45:32Z</time>
      </trkpt>
      <trkpt lat="43.88458" lon="0.64364">
        <ele>93</ele>
        <time>2015-02-27T11:51:10Z</time>
      </trkpt>
      <trkpt lat="43.88453" lon="0.64352">
        <ele>93.2</ele>
        <time>2015-02-27T11:51:20Z</time>
      </trkpt>
      <trkpt lat="43.86746" lon="0.65214">
        <ele>93.4</ele>
        <time>2015-02-27T12:20:10Z</time>
      </trkpt>
      <trkpt lat="43.86744" lon="0.6521">
        <ele>93.5</ele>
        <time>2015-02-27T12:20:13Z</time>
      </trkpt>
      <trkpt lat="43.86737" lon="0.65215">
        <ele>93.7</ele>
        <time>2015-02-27T12:20:20Z</time>
      </trkpt>
      <trkpt lat="43.86732" lon="0.65212">
        <ele>94</ele>
        <time>2015-02-27T12:20:25Z</time>
      </trkpt>
      <trkpt lat="43.86723" lon="0.65215">
        <ele>94.1</ele>
        <time>2015-02-27T12:20:34Z</time>
      </trkpt>
      <trkpt lat="43.86668" lon="0.6524">
        <ele>94.2</ele>
        <time>2015-02-27T12:21:29Z</time>
      </trkpt>
      <trkpt lat="43.86624" lon="0.65259">
        <ele>94.2</ele>
        <time>2015-02-27T12:22:13Z</time>
      </trkpt>
      <trkpt lat="43.86592" lon="0.6527">
        <ele>94</ele>
        <time>2015-02-27T12:22:44Z</time>
      </trkpt>
      <trkpt lat="43.86562" lon="0.65277">
        <ele>93.8</ele>
        <time>2015-02-27T12:23:13Z</time>
      </trkpt>
      <trkpt lat="43.8649" lon="0.65293">
        <ele>93.6</ele>
        <time>2015-02-27T12:24:23Z</time>
      </trkpt>
      <trkpt lat="43.86429" lon="0.65307">
        <ele>93.5</ele>
        <time>2015-02-27T12:25:22Z</time>
      </trkpt>
      <trkpt lat="43.86408" lon="0.65139">
        <ele>93.5</ele>
        <time>2015-02-27T12:27:18Z</time>
      </trkpt>
      <trkpt lat="43.86404" lon="0.6512">
        <ele>93.5</ele>
        <time>2015-02-27T12:27:32Z</time>
      </trkpt>
      <trkpt lat="43.86399" lon="0.65108">
        <ele>93.5</ele>
        <time>2015-02-27T12:27:41Z</time>
      </trkpt>
      <trkpt lat="43.86391" lon="0.651">
        <ele>93.4</ele>
        <time>2015-02-27T12:27:51Z</time>
      </trkpt>
      <trkpt lat="43.86382" lon="0.65095">
        <ele>93.2</ele>
        <time>2015-02-27T12:28:00Z</time>
      </trkpt>
      <trkpt lat="43.86326" lon="0.65102">
        <ele>93.3</ele>
        <time>2015-02-27T12:28:53Z</time>
      </trkpt>
      <trkpt lat="43.86311" lon="0.65098">
        <ele>93.7</ele>
        <time>2015-02-27T12:29:08Z</time>
      </trkpt>
      <trkpt lat="43.86299" lon="0.6509">
        <ele>94.4</ele>
        <time>2015-02-27T12:29:21Z</time>
      </trkpt>
      <trkpt lat="43.86278" lon="0.65076">
        <ele>95.4</ele>
        <time>2015-02-27T12:29:43Z</time>
      </trkpt>
      <trkpt lat="43.86268" lon="0.65074">
        <ele>96.5</ele>
        <time>2015-02-27T12:29:52Z</time>
      </trkpt>
      <trkpt lat="43.86188" lon="0.65077">
        <ele>97.6</ele>
        <time>2015-02-27T12:31:08Z</time>
      </trkpt>
      <trkpt lat="43.8619" lon="0.64903">
        <ele>99</ele>
        <time>2015-02-27T12:33:08Z</time>
      </trkpt>
      <trkpt lat="43.8619" lon="0.649">
        <ele>100</ele>
        <time>2015-02-27T12:33:10Z</time>
      </trkpt>
      <trkpt lat="43.86196" lon="0.64852">
        <ele>101.6</ele>
        <time>2015-02-27T12:33:43Z</time>
      </trkpt>
      <trkpt lat="43.86208" lon="0.64752">
        <ele>103.5</ele>
        <time>2015-02-27T12:34:53Z</time>
      </trkpt>
      <trkpt lat="43.86217" lon="0.64711">
        <ele>105.3</ele>
        <time>2015-02-27T12:35:22Z</time>
      </trkpt>
      <trkpt lat="43.86339" lon="0.64374">
        <ele>106.8</ele>
        <time>2015-02-27T12:39:41Z</time>
      </trkpt>
      <trkpt lat="43.86207" lon="0.64347">
        <ele>108.1</ele>
        <time>2015-02-27T12:41:48Z</time>
      </trkpt>
      <trkpt lat="43.85887" lon="0.64543">
        <ele>109.1</ele>
        <time>2015-02-27T12:47:20Z</time>
      </trkpt>
      <trkpt lat="43.85806" lon="0.64489">
        <ele>109.6</ele>
        <time>2015-02-27T12:48:46Z</time>
      </trkpt>
      <trkpt lat="43.85807" lon="0.64489">
        <ele>110.1</ele>
        <time>2015-02-27T12:48:46Z</time>
      </trkpt>
      <trkpt lat="43.85859" lon="0.64363">
        <ele>110.5</ele>
        <time>2015-02-27T12:50:26Z</time>
      </trkpt>
      <trkpt lat="43.85869" lon="0.64331">
        <ele>110.5</ele>
        <time>2015-02-27T12:50:50Z</time>
      </trkpt>
      <trkpt lat="43.85881" lon="0.64281">
        <ele>111</ele>
        <time>2015-02-27T12:51:26Z</time>
      </trkpt>
      <trkpt lat="43.85904" lon="0.6418">
        <ele>111</ele>
        <time>2015-02-27T12:52:39Z</time>
      </trkpt>
      <trkpt lat="43.8591" lon="0.64167">
        <ele>111.2</ele>
        <time>2015-02-27T12:52:49Z</time>
      </trkpt>
      <trkpt lat="43.85917" lon="0.64155">
        <ele>111.4</ele>
        <time>2015-02-27T12:53:00Z</time>
      </trkpt>
      <trkpt lat="43.85927" lon="0.64143">
        <ele>111.5</ele>
        <time>2015-02-27T12:53:12Z</time>
      </trkpt>
      <trkpt lat="43.8582" lon="0.64092">
        <ele>111.8</ele>
        <time>2015-02-27T12:54:59Z</time>
      </trkpt>
      <trkpt lat="43.85737" lon="0.64094">
        <ele>112.4</ele>
        <time>2015-02-27T12:56:19Z</time>
      </trkpt>
      <trkpt lat="43.85591" lon="0.64156">
        <ele>112.8</ele>
        <time>2015-02-27T12:58:44Z</time>
      </trkpt>
      <trkpt lat="43.8559" lon="0.64216">
        <ele>113.4</ele>
        <time>2015-02-27T12:59:25Z</time>
      </trkpt>
      <trkpt lat="43.85364" lon="0.64165">
        <ele>113.9</ele>
        <time>2015-02-27T13:03:03Z</time>
      </trkpt>
      <trkpt lat="43.85126" lon="0.64195">
        <ele>114.5</ele>
        <time>2015-02-27T13:06:51Z</time>
      </trkpt>
      <trkpt lat="43.85125" lon="0.64195">
        <ele>114.8</ele>
        <time>2015-02-27T13:06:51Z</time>
      </trkpt>
      <trkpt lat="43.85117" lon="0.64239">
        <ele>115.1</ele>
        <time>2015-02-27T13:07:23Z</time>
      </trkpt>
      <trkpt lat="43.85105" lon="0.643">
        <ele>115.1</ele>
        <time>2015-02-27T13:08:06Z</time>
      </trkpt>
      <trkpt lat="43.85087" lon="0.64388">
        <ele>114.7</ele>
        <time>2015-02-27T13:09:09Z</time>
      </trkpt>
      <trkpt lat="43.85081" lon="0.64399">
        <ele>114.4</ele>
        <time>2015-02-27T13:09:18Z</time>
      </trkpt>
      <trkpt lat="43.85075" lon="0.64402">
        <ele>113.9</ele>
        <time>2015-02-27T13:09:24Z</time>
      </trkpt>
      <trkpt lat="43.85068" lon="0.64401">
        <ele>113.5</ele>
        <time>2015-02-27T13:09:31Z</time>
      </trkpt>
      <trkpt lat="43.85049" lon="0.64396">
        <ele>113.2</ele>
        <time>2015-02-27T13:09:49Z</time>
      </trkpt>
      <trkpt lat="43.85032" lon="0.64394">
        <ele>112.8</ele>
        <time>2015-02-27T13:10:05Z</time>
      </trkpt>
      <trkpt lat="43.85032" lon="0.64392">
        <ele>112.5</ele>
        <time>2015-02-27T13:10:06Z</time>
      </trkpt>
      <trkpt lat="43.8503" lon="0.64431">
        <ele>112.1</ele>
        <time>2015-02-27T13:10:33Z</time>
      </trkpt>
      <trkpt lat="43.85033" lon="0.64431">
        <ele>111.7</ele>
        <time>2015-02-27T13:10:36Z</time>
      </trkpt>
      <trkpt lat="43.85034" lon="0.64472">
        <ele>111.4</ele>
        <time>2015-02-27T13:11:04Z</time>
      </trkpt>
      <trkpt lat="43.8503" lon="0.64468">
        <ele>110.6</ele>
        <time>2015-02-27T13:11:09Z</time>
      </trkpt>
      <trkpt lat="43.85027" lon="0.64438">
        <ele>110.3</ele>
        <time>2015-02-27T13:11:29Z</time>
      </trkpt>
      <trkpt lat="43.85024" lon="0.64431">
        <ele>109.9</ele>
        <time>2015-02-27T13:11:36Z</time>
      </trkpt>
      <trkpt lat="43.85018" lon="0.64425">
        <ele>110</ele>
        <time>2015-02-27T13:11:42Z</time>
      </trkpt>
      <trkpt lat="43.84971" lon="0.64399">
        <ele>110.5</ele>
        <time>2015-02-27T13:12:31Z</time>
      </trkpt>
      <trkpt lat="43.84866" lon="0.64354">
        <ele>111.2</ele>
        <time>2015-02-27T13:14:16Z</time>
      </trkpt>
      <trkpt lat="43.8485" lon="0.64345">
        <ele>111.8</ele>
        <time>2015-02-27T13:14:31Z</time>
      </trkpt>
      <trkpt lat="43.84845" lon="0.6434">
        <ele>112.4</ele>
        <time>2015-02-27T13:14:37Z</time>
      </trkpt>
      <trkpt lat="43.84627" lon="0.64216">
        <ele>112.3</ele>
        <time>2015-02-27T13:18:21Z</time>
      </trkpt>
      <trkpt lat="43.84463" lon="0.64244">
        <ele>112.7</ele>
        <time>2015-02-27T13:20:59Z</time>
      </trkpt>
      <trkpt lat="43.84295" lon="0.64352">
        <ele>113.2</ele>
        <time>2015-02-27T13:23:55Z</time>
      </trkpt>
      <trkpt lat="43.84279" lon="0.64326">
        <ele>114</ele>
        <time>2015-02-27T13:24:18Z</time>
      </trkpt>
      <trkpt lat="43.84145" lon="0.64377">
        <ele>114.9</ele>
        <time>2015-02-27T13:26:31Z</time>
      </trkpt>
      <trkpt lat="43.84028" lon="0.64603">
        <ele>115.8</ele>
        <time>2015-02-27T13:29:41Z</time>
      </trkpt>
      <trkpt lat="43.83804" lon="0.64899">
        <ele>116.3</ele>
        <time>2015-02-27T13:34:36Z</time>
      </trkpt>
      <trkpt lat="43.83801" lon="0.64902">
        <ele>116.1</ele>
        <time>2015-02-27T13:34:40Z</time>
      </trkpt>
      <trkpt lat="43.83807" lon="0.64912">
        <ele>115.8</ele>
        <time>2015-02-27T13:34:49Z</time>
      </trkpt>
      <trkpt lat="43.83793" lon="0.64935">
        <ele>115.3</ele>
        <time>2015-02-27T13:35:09Z</time>
      </trkpt>
      <trkpt lat="43.83743" lon="0.65019">
        <ele>114.8</ele>
        <time>2015-02-27T13:36:25Z</time>
      </trkpt>
      <trkpt lat="43.83739" lon="0.6503">
        <ele>115.4</ele>
        <time>2015-02-27T13:36:33Z</time>
      </trkpt>
      <trkpt lat="43.83728" lon="0.6507">
        <ele>116</ele>
        <time>2015-02-27T13:37:03Z</time>
      </trkpt>
      <trkpt lat="43.83713" lon="0.65135">
        <ele>116.6</ele>
        <time>2015-02-27T13:37:49Z</time>
      </trkpt>
      <trkpt lat="43.83521" lon="0.65036">
        <ele>117.6</ele>
        <time>2015-02-27T13:41:04Z</time>
      </trkpt>
      <trkpt lat="43.83385" lon="0.64935">
        <ele>119.3</ele>
        <time>2015-02-27T13:43:31Z</time>
      </trkpt>
      <trkpt lat="43.83267" lon="0.64798">
        <ele>120.7</ele>
        <time>2015-02-27T13:45:57Z</time>
      </trkpt>
      <trkpt lat="43.83038" lon="0.64545">
        <ele>122.2</ele>
        <time>2015-02-27T13:50:36Z</time>
      </trkpt>
      <trkpt lat="43.82984" lon="0.64506">
        <ele>123.8</ele>
        <time>2015-02-27T13:51:34Z</time>
      </trkpt>
      <trkpt lat="43.82882" lon="0.64388">
        <ele>125.5</ele>
        <time>2015-02-27T13:53:41Z</time>
      </trkpt>
      <trkpt lat="43.82821" lon="0.64294">
        <ele>127.4</ele>
        <time>2015-02-27T13:55:07Z</time>
      </trkpt>
      <trkpt lat="43.82764" lon="0.64223">
        <ele>129.3</ele>
        <time>2015-02-27T13:56:20Z</time>
      </trkpt>
      <trkpt lat="43.82762" lon="0.64229">
        <ele>130.8</ele>
        <time>2015-02-27T13:56:25Z</time>
      </trkpt>
      <trkpt lat="43.82753" lon="0.64223">
        <ele>131.7</ele>
        <time>2015-02-27T13:56:34Z</time>
      </trkpt>
      <trkpt lat="43.82739" lon="0.6422">
        <ele>132.6</ele>
        <time>2015-02-27T13:56:48Z</time>
      </trkpt>
      <trkpt lat="43.82721" lon="0.6422">
        <ele>133.6</ele>
        <time>2015-02-27T13:57:05Z</time>
      </trkpt>
      <trkpt lat="43.82631" lon="0.64228">
        <ele>133.9</ele>
        <time>2015-02-27T13:58:31Z</time>
      </trkpt>
      <trkpt lat="43.82603" lon="0.64228">
        <ele>134.5</ele>
        <time>2015-02-27T13:58:57Z</time>
      </trkpt>
      <trkpt lat="43.82579" lon="0.64227">
        <ele>135</ele>
        <time>2015-02-27T13:59:20Z</time>
      </trkpt>
      <trkpt lat="43.82555" lon="0.64223">
        <ele>135.5</ele>
        <time>2015-02-27T13:59:43Z</time>
      </trkpt>
      <trkpt lat="43.82532" lon="0.64217">
        <ele>136.1</ele>
        <time>2015-02-27T14:00:06Z</time>
      </trkpt>
      <trkpt lat="43.8249" lon="0.64204">
        <ele>136.5</ele>
        <time>2015-02-27T14:00:46Z</time>
      </trkpt>
      <trkpt lat="43.82458" lon="0.64187">
        <ele>137.1</ele>
        <time>2015-02-27T14:01:19Z</time>
      </trkpt>
      <trkpt lat="43.82422" lon="0.6417">
        <ele>137.6</ele>
        <time>2015-02-27T14:01:55Z</time>
      </trkpt>
      <trkpt lat="43.82385" lon="0.64145">
        <ele>138.1</ele>
        <time>2015-02-27T14:02:35Z</time>
      </trkpt>
      <trkpt lat="43.82337" lon="0.64112">
        <ele>138.5</ele>
        <time>2015-02-27T14:03:25Z</time>
      </trkpt>
      <trkpt lat="43.82267" lon="0.64065">
        <ele>138.5</ele>
        <time>2015-02-27T14:04:39Z</time>
      </trkpt>
      <trkpt lat="43.82233" lon="0.64037">
        <ele>138.8</ele>
        <time>2015-02-27T14:05:17Z</time>
      </trkpt>
      <trkpt lat="43.82214" lon="0.64026">
        <ele>138.8</ele>
        <time>2015-02-27T14:05:36Z</time>
      </trkpt>
      <trkpt lat="43.82199" lon="0.64023">
        <ele>139.1</ele>
        <time>2015-02-27T14:05:51Z</time>
      </trkpt>
      <trkpt lat="43.82189" lon="0.6402">
        <ele>139.4</ele>
        <time>2015-02-27T14:06:00Z</time>
      </trkpt>
      <trkpt lat="43.8217" lon="0.64014">
        <ele>139.5</ele>
        <time>2015-02-27T14:06:19Z</time>
      </trkpt>
      <trkpt lat="43.81938" lon="0.6375">
        <ele>138.8</ele>
        <time>2015-02-27T14:11:05Z</time>
      </trkpt>
      <trkpt lat="43.81596" lon="0.63413">
        <ele>138.1</ele>
        <time>2015-02-27T14:17:45Z</time>
      </trkpt>
      <trkpt lat="43.8148" lon="0.63328">
        <ele>136.3</ele>
        <time>2015-02-27T14:19:49Z</time>
      </trkpt>
      <trkpt lat="43.81301" lon="0.63309">
        <ele>133.6</ele>
        <time>2015-02-27T14:22:40Z</time>
      </trkpt>
      <trkpt lat="43.81161" lon="0.63334">
        <ele>133.9</ele>
        <time>2015-02-27T14:24:54Z</time>
      </trkpt>
      <trkpt lat="43.8112" lon="0.63395">
        <ele>134.5</ele>
        <time>2015-02-27T14:25:52Z</time>
      </trkpt>
      <trkpt lat="43.81065" lon="0.63414">
        <ele>134.8</ele>
        <time>2015-02-27T14:26:45Z</time>
      </trkpt>
      <trkpt lat="43.81008" lon="0.63373">
        <ele>135.1</ele>
        <time>2015-02-27T14:27:46Z</time>
      </trkpt>
      <trkpt lat="43.80801" lon="0.63349">
        <ele>135.2</ele>
        <time>2015-02-27T14:31:04Z</time>
      </trkpt>
      <trkpt lat="43.80492" lon="0.63234">
        <ele>135.7</ele>
        <time>2015-02-27T14:36:08Z</time>
      </trkpt>
      <trkpt lat="43.80228" lon="0.63023">
        <ele>136.2</ele>
        <time>2015-02-27T14:40:59Z</time>
      </trkpt>
      <trkpt lat="43.80067" lon="0.62957">
        <ele>137.5</ele>
        <time>2015-02-27T14:43:39Z</time>
      </trkpt>
      <trkpt lat="43.79978" lon="0.62858">
        <ele>138.6</ele>
        <time>2015-02-27T14:45:27Z</time>
      </trkpt>
      <trkpt lat="43.79758" lon="0.62768">
        <ele>140.9</ele>
        <time>2015-02-27T14:49:05Z</time>
      </trkpt>
      <trkpt lat="43.79856" lon="0.62483">
        <ele>144.3</ele>
        <time>2015-02-27T14:52:42Z</time>
      </trkpt>
      <trkpt lat="43.7978" lon="0.62442">
        <ele>144.7</ele>
        <time>2015-02-27T14:53:59Z</time>
      </trkpt>
      <trkpt lat="43.79775" lon="0.62274">
        <ele>144.8</ele>
        <time>2015-02-27T14:55:55Z</time>
      </trkpt>
      <trkpt lat="43.79751" lon="0.62129">
        <ele>144.9</ele>
        <time>2015-02-27T14:57:38Z</time>
      </trkpt>
      <trkpt lat="43.79713" lon="0.61824">
        <ele>145.2</ele>
        <time>2015-02-27T15:01:10Z</time>
      </trkpt>
      <trkpt lat="43.79645" lon="0.61648">
        <ele>145.5</ele>
        <time>2015-02-27T15:03:27Z</time>
      </trkpt>
      <trkpt lat="43.79644" lon="0.61648">
        <ele>144.6</ele>
        <time>2015-02-27T15:03:28Z</time>
      </trkpt>
      <trkpt lat="43.79637" lon="0.61656">
        <ele>143.1</ele>
        <time>2015-02-27T15:03:37Z</time>
      </trkpt>
      <trkpt lat="43.79608" lon="0.61678">
        <ele>140.3</ele>
        <time>2015-02-27T15:04:09Z</time>
      </trkpt>
      <trkpt lat="43.79595" lon="0.61703">
        <ele>137.5</ele>
        <time>2015-02-27T15:04:29Z</time>
      </trkpt>
      <trkpt lat="43.79592" lon="0.61717">
        <ele>134.8</ele>
        <time>2015-02-27T15:04:39Z</time>
      </trkpt>
      <trkpt lat="43.79506" lon="0.61813">
        <ele>131.2</ele>
        <time>2015-02-27T15:06:25Z</time>
      </trkpt>
      <trkpt lat="43.79449" lon="0.618">
        <ele>127.5</ele>
        <time>2015-02-27T15:07:20Z</time>
      </trkpt>
      <trkpt lat="43.79308" lon="0.61822">
        <ele>123.9</ele>
        <time>2015-02-27T15:09:35Z</time>
      </trkpt>
      <trkpt lat="43.79307" lon="0.61821">
        <ele>120.5</ele>
        <time>2015-02-27T15:09:35Z</time>
      </trkpt>
      <trkpt lat="43.79298" lon="0.61827">
        <ele>117</ele>
        <time>2015-02-27T15:09:45Z</time>
      </trkpt>
      <trkpt lat="43.79268" lon="0.61831">
        <ele>113.6</ele>
        <time>2015-02-27T15:10:14Z</time>
      </trkpt>
      <trkpt lat="43.79267" lon="0.61828">
        <ele>110.9</ele>
        <time>2015-02-27T15:10:16Z</time>
      </trkpt>
      <trkpt lat="43.79266" lon="0.61821">
        <ele>108.8</ele>
        <time>2015-02-27T15:10:21Z</time>
      </trkpt>
      <trkpt lat="43.79258" lon="0.6177">
        <ele>108</ele>
        <time>2015-02-27T15:10:57Z</time>
      </trkpt>
      <trkpt lat="43.79245" lon="0.61725">
        <ele>107.2</ele>
        <time>2015-02-27T15:11:30Z</time>
      </trkpt>
      <trkpt lat="43.79231" lon="0.61692">
        <ele>106.6</ele>
        <time>2015-02-27T15:11:57Z</time>
      </trkpt>
      <trkpt lat="43.7921" lon="0.61664">
        <ele>106.5</ele>
        <time>2015-02-27T15:12:24Z</time>
      </trkpt>
      <trkpt lat="43.79201" lon="0.61651">
        <ele>106.5</ele>
        <time>2015-02-27T15:12:37Z</time>
      </trkpt>
      <trkpt lat="43.79199" lon="0.61642">
        <ele>106.5</ele>
        <time>2015-02-27T15:12:43Z</time>
      </trkpt>
      <trkpt lat="43.79189" lon="0.61642">
        <ele>106.4</ele>
        <time>2015-02-27T15:12:53Z</time>
      </trkpt>
      <trkpt lat="43.7915" lon="0.61605">
        <ele>106.3</ele>
        <time>2015-02-27T15:13:38Z</time>
      </trkpt>
      <trkpt lat="43.79121" lon="0.61575">
        <ele>105.9</ele>
        <time>2015-02-27T15:14:12Z</time>
      </trkpt>
      <trkpt lat="43.79107" lon="0.61554">
        <ele>105.5</ele>
        <time>2015-02-27T15:14:32Z</time>
      </trkpt>
      <trkpt lat="43.79069" lon="0.61494">
        <ele>105.5</ele>
        <time>2015-02-27T15:15:26Z</time>
      </trkpt>
      <trkpt lat="43.79058" lon="0.61479">
        <ele>105.5</ele>
        <time>2015-02-27T15:15:41Z</time>
      </trkpt>
      <trkpt lat="43.79045" lon="0.61466">
        <ele>105.5</ele>
        <time>2015-02-27T15:15:56Z</time>
      </trkpt>
      <trkpt lat="43.79025" lon="0.61456">
        <ele>105.3</ele>
        <time>2015-02-27T15:16:17Z</time>
      </trkpt>
      <trkpt lat="43.78999" lon="0.61443">
        <ele>105.4</ele>
        <time>2015-02-27T15:16:43Z</time>
      </trkpt>
      <trkpt lat="43.78961" lon="0.61418">
        <ele>105.5</ele>
        <time>2015-02-27T15:17:23Z</time>
      </trkpt>
      <trkpt lat="43.7893" lon="0.61402">
        <ele>105.3</ele>
        <time>2015-02-27T15:17:55Z</time>
      </trkpt>
      <trkpt lat="43.78875" lon="0.61384">
        <ele>105.1</ele>
        <time>2015-02-27T15:18:49Z</time>
      </trkpt>
      <trkpt lat="43.78843" lon="0.61377">
        <ele>104.9</ele>
        <time>2015-02-27T15:19:19Z</time>
      </trkpt>
      <trkpt lat="43.78822" lon="0.61375">
        <ele>104.8</ele>
        <time>2015-02-27T15:19:39Z</time>
      </trkpt>
      <trkpt lat="43.78809" lon="0.61378">
        <ele>104.9</ele>
        <time>2015-02-27T15:19:52Z</time>
      </trkpt>
      <trkpt lat="43.78777" lon="0.61395">
        <ele>105</ele>
        <time>2015-02-27T15:20:24Z</time>
      </trkpt>
      <trkpt lat="43.78765" lon="0.61399">
        <ele>105.1</ele>
        <time>2015-02-27T15:20:37Z</time>
      </trkpt>
      <trkpt lat="43.78749" lon="0.61398">
        <ele>105.3</ele>
        <time>2015-02-27T15:20:52Z</time>
      </trkpt>
      <trkpt lat="43.78736" lon="0.61394">
        <ele>105.3</ele>
        <time>2015-02-27T15:21:04Z</time>
      </trkpt>
      <trkpt lat="43.78712" lon="0.6138">
        <ele>105.2</ele>
        <time>2015-02-27T15:21:29Z</time>
      </trkpt>
      <trkpt lat="43.78693" lon="0.61364">
        <ele>105.1</ele>
        <time>2015-02-27T15:21:50Z</time>
      </trkpt>
      <trkpt lat="43.78661" lon="0.61332">
        <ele>105.2</ele>
        <time>2015-02-27T15:22:28Z</time>
      </trkpt>
      <trkpt lat="43.78646" lon="0.61322">
        <ele>105.6</ele>
        <time>2015-02-27T15:22:44Z</time>
      </trkpt>
      <trkpt lat="43.7863" lon="0.61317">
        <ele>106.1</ele>
        <time>2015-02-27T15:22:59Z</time>
      </trkpt>
      <trkpt lat="43.78598" lon="0.61316">
        <ele>106.8</ele>
        <time>2015-02-27T15:23:30Z</time>
      </trkpt>
      <trkpt lat="43.78571" lon="0.61313">
        <ele>107.4</ele>
        <time>2015-02-27T15:23:55Z</time>
      </trkpt>
      <trkpt lat="43.78546" lon="0.61303">
        <ele>107.8</ele>
        <time>2015-02-27T15:24:20Z</time>
      </trkpt>
      <trkpt lat="43.78528" lon="0.61291">
        <ele>108.3</ele>
        <time>2015-02-27T15:24:40Z</time>
      </trkpt>
      <trkpt lat="43.78501" lon="0.61262">
        <ele>108.7</ele>
        <time>2015-02-27T15:25:12Z</time>
      </trkpt>
      <trkpt lat="43.78429" lon="0.61177">
        <ele>109.2</ele>
        <time>2015-02-27T15:26:42Z</time>
      </trkpt>
      <trkpt lat="43.78398" lon="0.6114">
        <ele>109.7</ele>
        <time>2015-02-27T15:27:21Z</time>
      </trkpt>
      <trkpt lat="43.78375" lon="0.61115">
        <ele>109.9</ele>
        <time>2015-02-27T15:27:49Z</time>
      </trkpt>
      <trkpt lat="43.78356" lon="0.61105">
        <ele>110.1</ele>
        <time>2015-02-27T15:28:08Z</time>
      </trkpt>
      <trkpt lat="43.78303" lon="0.61078">
        <ele>110.2</ele>
        <time>2015-02-27T15:29:01Z</time>
      </trkpt>
      <trkpt lat="43.7826" lon="0.61053">
        <ele>110.3</ele>
        <time>2015-02-27T15:29:46Z</time>
      </trkpt>
      <trkpt lat="43.78229" lon="0.61033">
        <ele>110.1</ele>
        <time>2015-02-27T15:30:19Z</time>
      </trkpt>
      <trkpt lat="43.78205" lon="0.61013">
        <ele>109.9</ele>
        <time>2015-02-27T15:30:46Z</time>
      </trkpt>
      <trkpt lat="43.78189" lon="0.60992">
        <ele>109.8</ele>
        <time>2015-02-27T15:31:07Z</time>
      </trkpt>
      <trkpt lat="43.78176" lon="0.60969">
        <ele>109.5</ele>
        <time>2015-02-27T15:31:26Z</time>
      </trkpt>
      <trkpt lat="43.78165" lon="0.60945">
        <ele>109.1</ele>
        <time>2015-02-27T15:31:45Z</time>
      </trkpt>
      <trkpt lat="43.78157" lon="0.60934">
        <ele>108.7</ele>
        <time>2015-02-27T15:31:57Z</time>
      </trkpt>
      <trkpt lat="43.78148" lon="0.60927">
        <ele>108.5</ele>
        <time>2015-02-27T15:32:07Z</time>
      </trkpt>
      <trkpt lat="43.78129" lon="0.60921">
        <ele>108.5</ele>
        <time>2015-02-27T15:32:25Z</time>
      </trkpt>
      <trkpt lat="43.7812" lon="0.60915">
        <ele>108.6</ele>
        <time>2015-02-27T15:32:34Z</time>
      </trkpt>
      <trkpt lat="43.78114" lon="0.60906">
        <ele>108.5</ele>
        <time>2015-02-27T15:32:43Z</time>
      </trkpt>
      <trkpt lat="43.78109" lon="0.60886">
        <ele>108.3</ele>
        <time>2015-02-27T15:32:58Z</time>
      </trkpt>
      <trkpt lat="43.78101" lon="0.60847">
        <ele>108.1</ele>
        <time>2015-02-27T15:33:26Z</time>
      </trkpt>
      <trkpt lat="43.78095" lon="0.60826">
        <ele>107.9</ele>
        <time>2015-02-27T15:33:41Z</time>
      </trkpt>
      <trkpt lat="43.78091" lon="0.60819">
        <ele>107.7</ele>
        <time>2015-02-27T15:33:47Z</time>
      </trkpt>
      <trkpt lat="43.78078" lon="0.60807">
        <ele>107.8</ele>
        <time>2015-02-27T15:34:02Z</time>
      </trkpt>
      <trkpt lat="43.78074" lon="0.60798">
        <ele>108</ele>
        <time>2015-02-27T15:34:09Z</time>
      </trkpt>
      <trkpt lat="43.78072" lon="0.60781">
        <ele>108.2</ele>
        <time>2015-02-27T15:34:21Z</time>
      </trkpt>
      <trkpt lat="43.78071" lon="0.60757">
        <ele>108.3</ele>
        <time>2015-02-27T15:34:38Z</time>
      </trkpt>
      <trkpt lat="43.78064" lon="0.60729">
        <ele>108.4</ele>
        <time>2015-02-27T15:34:58Z</time>
      </trkpt>
      <trkpt lat="43.78062" lon="0.60711">
        <ele>110.3</ele>
        <time>2015-02-27T15:35:11Z</time>
      </trkpt>
      <trkpt lat="43.7806" lon="0.6067">
        <ele>112.2</ele>
        <time>2015-02-27T15:35:39Z</time>
      </trkpt>
      <trkpt lat="43.78059" lon="0.60635">
        <ele>114.8</ele>
        <time>2015-02-27T15:36:03Z</time>
      </trkpt>
      <trkpt lat="43.78055" lon="0.60622">
        <ele>117.5</ele>
        <time>2015-02-27T15:36:12Z</time>
      </trkpt>
      <trkpt lat="43.78045" lon="0.6062">
        <ele>121</ele>
        <time>2015-02-27T15:36:22Z</time>
      </trkpt>
      <trkpt lat="43.77874" lon="0.60641">
        <ele>124.5</ele>
        <time>2015-02-27T15:39:05Z</time>
      </trkpt>
      <trkpt lat="43.77821" lon="0.60651">
        <ele>128.1</ele>
        <time>2015-02-27T15:39:57Z</time>
      </trkpt>
      <trkpt lat="43.77758" lon="0.60651">
        <ele>132.3</ele>
        <time>2015-02-27T15:40:57Z</time>
      </trkpt>
      <trkpt lat="43.77716" lon="0.60631">
        <ele>136.5</ele>
        <time>2015-02-27T15:41:39Z</time>
      </trkpt>
      <trkpt lat="43.77703" lon="0.60611">
        <ele>140.9</ele>
        <time>2015-02-27T15:41:57Z</time>
      </trkpt>
      <trkpt lat="43.77695" lon="0.60595">
        <ele>145.4</ele>
        <time>2015-02-27T15:42:11Z</time>
      </trkpt>
      <trkpt lat="43.77691" lon="0.60583">
        <ele>148.3</ele>
        <time>2015-02-27T15:42:19Z</time>
      </trkpt>
      <trkpt lat="43.77691" lon="0.60545">
        <ele>151</ele>
        <time>2015-02-27T15:42:46Z</time>
      </trkpt>
      <trkpt lat="43.77688" lon="0.60474">
        <ele>152.7</ele>
        <time>2015-02-27T15:43:35Z</time>
      </trkpt>
      <trkpt lat="43.77687" lon="0.60419">
        <ele>154.6</ele>
        <time>2015-02-27T15:44:12Z</time>
      </trkpt>
      <trkpt lat="43.77685" lon="0.6039">
        <ele>153.7</ele>
        <time>2015-02-27T15:44:32Z</time>
      </trkpt>
      <trkpt lat="43.77683" lon="0.6038">
        <ele>152.1</ele>
        <time>2015-02-27T15:44:39Z</time>
      </trkpt>
      <trkpt lat="43.77546" lon="0.6012">
        <ele>150.1</ele>
        <time>2015-02-27T15:48:21Z</time>
      </trkpt>
      <trkpt lat="43.7758" lon="0.60047">
        <ele>149.1</ele>
        <time>2015-02-27T15:49:20Z</time>
      </trkpt>
      <trkpt lat="43.77509" lon="0.59837">
        <ele>150</ele>
        <time>2015-02-27T15:52:00Z</time>
      </trkpt>
      <trkpt lat="43.77667" lon="0.59485">
        <ele>150.8</ele>
        <time>2015-02-27T15:56:45Z</time>
      </trkpt>
      <trkpt lat="43.77683" lon="0.59163">
        <ele>152.5</ele>
        <time>2015-02-27T16:00:26Z</time>
      </trkpt>
      <trkpt lat="43.77639" lon="0.58991">
        <ele>154.4</ele>
        <time>2015-02-27T16:02:31Z</time>
      </trkpt>
      <trkpt lat="43.77844" lon="0.58906">
        <ele>156.4</ele>
        <time>2015-02-27T16:05:55Z</time>
      </trkpt>
      <trkpt lat="43.78064" lon="0.58494">
        <ele>158.4</ele>
        <time>2015-02-27T16:11:47Z</time>
      </trkpt>
      <trkpt lat="43.78253" lon="0.58399">
        <ele>160.2</ele>
        <time>2015-02-27T16:14:58Z</time>
      </trkpt>
      <trkpt lat="43.78516" lon="0.58125">
        <ele>164.2</ele>
        <time>2015-02-27T16:20:12Z</time>
      </trkpt>
      <trkpt lat="43.78398" lon="0.57961">
        <ele>168.9</ele>
        <time>2015-02-27T16:22:51Z</time>
      </trkpt>
      <trkpt lat="43.78327" lon="0.57683">
        <ele>174</ele>
        <time>2015-02-27T16:26:14Z</time>
      </trkpt>
      <trkpt lat="43.78343" lon="0.57466">
        <ele>177.5</ele>
        <time>2015-02-27T16:28:44Z</time>
      </trkpt>
      <trkpt lat="43.78343" lon="0.57469">
        <ele>179.4</ele>
        <time>2015-02-27T16:28:46Z</time>
      </trkpt>
      <trkpt lat="43.78288" lon="0.57484">
        <ele>181.1</ele>
        <time>2015-02-27T16:29:39Z</time>
      </trkpt>
      <trkpt lat="43.78252" lon="0.57491">
        <ele>181.9</ele>
        <time>2015-02-27T16:30:14Z</time>
      </trkpt>
      <trkpt lat="43.78234" lon="0.57489">
        <ele>182.5</ele>
        <time>2015-02-27T16:30:31Z</time>
      </trkpt>
      <trkpt lat="43.78199" lon="0.57476">
        <ele>182.7</ele>
        <time>2015-02-27T16:31:06Z</time>
      </trkpt>
      <trkpt lat="43.78044" lon="0.57415">
        <ele>183.2</ele>
        <time>2015-02-27T16:33:39Z</time>
      </trkpt>
      <trkpt lat="43.78014" lon="0.57402">
        <ele>184.1</ele>
        <time>2015-02-27T16:34:09Z</time>
      </trkpt>
      <trkpt lat="43.78002" lon="0.57392">
        <ele>184.7</ele>
        <time>2015-02-27T16:34:23Z</time>
      </trkpt>
      <trkpt lat="43.77975" lon="0.5736">
        <ele>185.4</ele>
        <time>2015-02-27T16:34:56Z</time>
      </trkpt>
      <trkpt lat="43.77957" lon="0.57343">
        <ele>186</ele>
        <time>2015-02-27T16:35:17Z</time>
      </trkpt>
      <trkpt lat="43.77944" lon="0.57336">
        <ele>186.5</ele>
        <time>2015-02-27T16:35:31Z</time>
      </trkpt>
      <trkpt lat="43.78027" lon="0.56794">
        <ele>186.7</ele>
        <time>2015-02-27T16:41:51Z</time>
      </trkpt>
      <trkpt lat="43.78053" lon="0.56801">
        <ele>187</ele>
        <time>2015-02-27T16:42:16Z</time>
      </trkpt>
      <trkpt lat="43.78093" lon="0.56708">
        <ele>187.2</ele>
        <time>2015-02-27T16:43:30Z</time>
      </trkpt>
      <trkpt lat="43.78093" lon="0.56708">
        <ele>186.1</ele>
        <time>2015-02-27T16:43:31Z</time>
      </trkpt>
      <trkpt lat="43.78093" lon="0.56666">
        <ele>184.7</ele>
        <time>2015-02-27T16:44:00Z</time>
      </trkpt>
      <trkpt lat="43.78091" lon="0.5658">
        <ele>184.9</ele>
        <time>2015-02-27T16:44:59Z</time>
      </trkpt>
      <trkpt lat="43.78134" lon="0.56073">
        <ele>183.5</ele>
        <time>2015-02-27T16:50:49Z</time>
      </trkpt>
      <trkpt lat="43.78239" lon="0.56054">
        <ele>182</ele>
        <time>2015-02-27T16:52:30Z</time>
      </trkpt>
      <trkpt lat="43.78601" lon="0.5561">
        <ele>180.5</ele>
        <time>2015-02-27T17:00:11Z</time>
      </trkpt>
      <trkpt lat="43.78721" lon="0.55741">
        <ele>179.1</ele>
        <time>2015-02-27T17:02:36Z</time>
      </trkpt>
      <trkpt lat="43.78874" lon="0.55247">
        <ele>177.6</ele>
        <time>2015-02-27T17:08:45Z</time>
      </trkpt>
      <trkpt lat="43.78992" lon="0.55043">
        <ele>176.7</ele>
        <time>2015-02-27T17:11:44Z</time>
      </trkpt>
      <trkpt lat="43.78992" lon="0.55044">
        <ele>176.3</ele>
        <time>2015-02-27T17:11:45Z</time>
      </trkpt>
      <trkpt lat="43.78996" lon="0.55038">
        <ele>175.9</ele>
        <time>2015-02-27T17:11:50Z</time>
      </trkpt>
      <trkpt lat="43.79001" lon="0.55027">
        <ele>176.8</ele>
        <time>2015-02-27T17:11:59Z</time>
      </trkpt>
      <trkpt lat="43.79017" lon="0.54976">
        <ele>178.5</ele>
        <time>2015-02-27T17:12:38Z</time>
      </trkpt>
      <trkpt lat="43.79047" lon="0.54877">
        <ele>178.5</ele>
        <time>2015-02-27T17:13:51Z</time>
      </trkpt>
      <trkpt lat="43.79052" lon="0.54859">
        <ele>179.8</ele>
        <time>2015-02-27T17:14:05Z</time>
      </trkpt>
      <trkpt lat="43.79066" lon="0.54824">
        <ele>181.4</ele>
        <time>2015-02-27T17:14:32Z</time>
      </trkpt>
      <trkpt lat="43.79086" lon="0.54766">
        <ele>182.9</ele>
        <time>2015-02-27T17:15:16Z</time>
      </trkpt>
      <trkpt lat="43.79089" lon="0.5475">
        <ele>184.6</ele>
        <time>2015-02-27T17:15:27Z</time>
      </trkpt>
      <trkpt lat="43.79093" lon="0.5472">
        <ele>186.4</ele>
        <time>2015-02-27T17:15:48Z</time>
      </trkpt>
      <trkpt lat="43.79092" lon="0.54713">
        <ele>187.7</ele>
        <time>2015-02-27T17:15:53Z</time>
      </trkpt>
      <trkpt lat="43.79096" lon="0.54706">
        <ele>188.5</ele>
        <time>2015-02-27T17:15:59Z</time>
      </trkpt>
      <trkpt lat="43.79102" lon="0.54666">
        <ele>189.3</ele>
        <time>2015-02-27T17:16:27Z</time>
      </trkpt>
      <trkpt lat="43.79113" lon="0.54608">
        <ele>189.8</ele>
        <time>2015-02-27T17:17:08Z</time>
      </trkpt>
      <trkpt lat="43.79123" lon="0.54569">
        <ele>190.4</ele>
        <time>2015-02-27T17:17:37Z</time>
      </trkpt>
      <trkpt lat="43.79144" lon="0.54512">
        <ele>190.9</ele>
        <time>2015-02-27T17:18:21Z</time>
      </trkpt>
      <trkpt lat="43.79153" lon="0.5449">
        <ele>191.5</ele>
        <time>2015-02-27T17:18:38Z</time>
      </trkpt>
      <trkpt lat="43.7918" lon="0.54444">
        <ele>192</ele>
        <time>2015-02-27T17:19:19Z</time>
      </trkpt>
      <trkpt lat="43.79202" lon="0.54395">
        <ele>192.4</ele>
        <time>2015-02-27T17:19:59Z</time>
      </trkpt>
      <trkpt lat="43.7921" lon="0.54383">
        <ele>193.1</ele>
        <time>2015-02-27T17:20:10Z</time>
      </trkpt>
      <trkpt lat="43.79207" lon="0.54382">
        <ele>193.5</ele>
        <time>2015-02-27T17:20:12Z</time>
      </trkpt>
      <trkpt lat="43.79342" lon="0.5442">
        <ele>193.8</ele>
        <time>2015-02-27T17:22:23Z</time>
      </trkpt>
      <trkpt lat="43.79411" lon="0.54447">
        <ele>193.5</ele>
        <time>2015-02-27T17:23:31Z</time>
      </trkpt>
      <trkpt lat="43.79535" lon="0.54484">
        <ele>193.4</ele>
        <time>2015-02-27T17:25:32Z</time>
      </trkpt>
      <trkpt lat="43.79625" lon="0.54488">
        <ele>193.2</ele>
        <time>2015-02-27T17:26:57Z</time>
      </trkpt>
      <trkpt lat="43.79631" lon="0.54489">
        <ele>193.5</ele>
        <time>2015-02-27T17:27:03Z</time>
      </trkpt>
      <trkpt lat="43.79687" lon="0.5448">
        <ele>193.7</ele>
        <time>2015-02-27T17:27:57Z</time>
      </trkpt>
      <trkpt lat="43.79816" lon="0.54411">
        <ele>193.9</ele>
        <time>2015-02-27T17:30:08Z</time>
      </trkpt>
      <trkpt lat="43.79848" lon="0.54412">
        <ele>194</ele>
        <time>2015-02-27T17:30:39Z</time>
      </trkpt>
      <trkpt lat="43.79879" lon="0.5443">
        <ele>193.6</ele>
        <time>2015-02-27T17:31:11Z</time>
      </trkpt>
      <trkpt lat="43.80023" lon="0.5457">
        <ele>192.7</ele>
        <time>2015-02-27T17:33:58Z</time>
      </trkpt>
      <trkpt lat="43.80029" lon="0.54571">
        <ele>192.1</ele>
        <time>2015-02-27T17:34:03Z</time>
      </trkpt>
      <trkpt lat="43.80029" lon="0.5459">
        <ele>191.2</ele>
        <time>2015-02-27T17:34:17Z</time>
      </trkpt>
      <trkpt lat="43.80037" lon="0.54621">
        <ele>190.5</ele>
        <time>2015-02-27T17:34:39Z</time>
      </trkpt>
      <trkpt lat="43.80048" lon="0.54653">
        <ele>189.9</ele>
        <time>2015-02-27T17:35:03Z</time>
      </trkpt>
      <trkpt lat="43.80058" lon="0.54667">
        <ele>189.2</ele>
        <time>2015-02-27T17:35:17Z</time>
      </trkpt>
      <trkpt lat="43.80064" lon="0.54675">
        <ele>188</ele>
        <time>2015-02-27T17:35:25Z</time>
      </trkpt>
      <trkpt lat="43.80138" lon="0.54772">
        <ele>186.8</ele>
        <time>2015-02-27T17:37:02Z</time>
      </trkpt>
      <trkpt lat="43.80197" lon="0.5484">
        <ele>185.6</ele>
        <time>2015-02-27T17:38:15Z</time>
      </trkpt>
      <trkpt lat="43.80218" lon="0.54872">
        <ele>184.4</ele>
        <time>2015-02-27T17:38:44Z</time>
      </trkpt>
      <trkpt lat="43.80243" lon="0.54926">
        <ele>183.6</ele>
        <time>2015-02-27T17:39:28Z</time>
      </trkpt>
      <trkpt lat="43.80252" lon="0.54945">
        <ele>182.8</ele>
        <time>2015-02-27T17:39:45Z</time>
      </trkpt>
      <trkpt lat="43.80218" lon="0.55174">
        <ele>181.8</ele>
        <time>2015-02-27T17:42:25Z</time>
      </trkpt>
      <trkpt lat="43.80232" lon="0.55181">
        <ele>181.1</ele>
        <time>2015-02-27T17:42:38Z</time>
      </trkpt>
      <trkpt lat="43.8022" lon="0.55257">
        <ele>180</ele>
        <time>2015-02-27T17:43:32Z</time>
      </trkpt>
      <trkpt lat="43.80238" lon="0.5527">
        <ele>178.8</ele>
        <time>2015-02-27T17:43:51Z</time>
      </trkpt>
      <trkpt lat="43.80215" lon="0.55345">
        <ele>177.5</ele>
        <time>2015-02-27T17:44:47Z</time>
      </trkpt>
      <trkpt lat="43.80282" lon="0.55384">
        <ele>175.5</ele>
        <time>2015-02-27T17:45:57Z</time>
      </trkpt>
      <trkpt lat="43.80262" lon="0.55438">
        <ele>174.2</ele>
        <time>2015-02-27T17:46:38Z</time>
      </trkpt>
      <trkpt lat="43.80139" lon="0.55593">
        <ele>172.9</ele>
        <time>2015-02-27T17:49:16Z</time>
      </trkpt>
      <trkpt lat="43.8007" lon="0.55708">
        <ele>171.5</ele>
        <time>2015-02-27T17:51:00Z</time>
      </trkpt>
      <trkpt lat="43.80017" lon="0.5585">
        <ele>169.7</ele>
        <time>2015-02-27T17:52:49Z</time>
      </trkpt>
      <trkpt lat="43.79856" lon="0.56172">
        <ele>167.8</ele>
        <time>2015-02-27T17:57:18Z</time>
      </trkpt>
      <trkpt lat="43.80242" lon="0.56374">
        <ele>165.7</ele>
        <time>2015-02-27T18:03:51Z</time>
      </trkpt>
      <trkpt lat="43.80241" lon="0.56372">
        <ele>163.3</ele>
        <time>2015-02-27T18:03:52Z</time>
      </trkpt>
      <trkpt lat="43.8021" lon="0.56425">
        <ele>161.5</ele>
        <time>2015-02-27T18:04:38Z</time>
      </trkpt>
      <trkpt lat="43.80192" lon="0.56455">
        <ele>160.4</ele>
        <time>2015-02-27T18:05:05Z</time>
      </trkpt>
      <trkpt lat="43.80296" lon="0.56532">
        <ele>158.5</ele>
        <time>2015-02-27T18:06:58Z</time>
      </trkpt>
      <trkpt lat="43.80324" lon="0.56528">
        <ele>157.4</ele>
        <time>2015-02-27T18:07:24Z</time>
      </trkpt>
      <trkpt lat="43.80395" lon="0.56577">
        <ele>157.3</ele>
        <time>2015-02-27T18:08:40Z</time>
      </trkpt>
      <trkpt lat="43.80423" lon="0.56605">
        <ele>155.5</ele>
        <time>2015-02-27T18:09:13Z</time>
      </trkpt>
      <trkpt lat="43.80567" lon="0.56734">
        <ele>154.3</ele>
        <time>2015-02-27T18:11:56Z</time>
      </trkpt>
      <trkpt lat="43.80856" lon="0.56856">
        <ele>153.8</ele>
        <time>2015-02-27T18:16:44Z</time>
      </trkpt>
      <trkpt lat="43.80931" lon="0.5688">
        <ele>153.6</ele>
        <time>2015-02-27T18:17:57Z</time>
      </trkpt>
      <trkpt lat="43.81206" lon="0.57">
        <ele>153.9</ele>
        <time>2015-02-27T18:22:32Z</time>
      </trkpt>
      <trkpt lat="43.81093" lon="0.57507">
        <ele>154.4</ele>
        <time>2015-02-27T18:28:36Z</time>
      </trkpt>
      <trkpt lat="43.81618" lon="0.57904">
        <ele>154.8</ele>
        <time>2015-02-27T18:38:05Z</time>
      </trkpt>
      <trkpt lat="43.81638" lon="0.57893">
        <ele>154.2</ele>
        <time>2015-02-27T18:38:26Z</time>
      </trkpt>
      <trkpt lat="43.8164" lon="0.57892">
        <ele>153.9</ele>
        <time>2015-02-27T18:38:27Z</time>
      </trkpt>
      <trkpt lat="43.81654" lon="0.57992">
        <ele>152.8</ele>
        <time>2015-02-27T18:39:36Z</time>
      </trkpt>
      <trkpt lat="43.81651" lon="0.58055">
        <ele>150.6</ele>
        <time>2015-02-27T18:40:20Z</time>
      </trkpt>
      <trkpt lat="43.81637" lon="0.58135">
        <ele>150.5</ele>
        <time>2015-02-27T18:41:17Z</time>
      </trkpt>
      <trkpt lat="43.81624" lon="0.58194">
        <ele>150.2</ele>
        <time>2015-02-27T18:41:59Z</time>
      </trkpt>
      <trkpt lat="43.81631" lon="0.58264">
        <ele>149.5</ele>
        <time>2015-02-27T18:42:48Z</time>
      </trkpt>
      <trkpt lat="43.81681" lon="0.5842">
        <ele>148.9</ele>
        <time>2015-02-27T18:44:45Z</time>
      </trkpt>
      <trkpt lat="43.81769" lon="0.58761">
        <ele>148.5</ele>
        <time>2015-02-27T18:48:53Z</time>
      </trkpt>
      <trkpt lat="43.81794" lon="0.58906">
        <ele>148.1</ele>
        <time>2015-02-27T18:50:36Z</time>
      </trkpt>
      <trkpt lat="43.81818" lon="0.59019">
        <ele>149.1</ele>
        <time>2015-02-27T18:51:57Z</time>
      </trkpt>
      <trkpt lat="43.81828" lon="0.59077">
        <ele>150.4</ele>
        <time>2015-02-27T18:52:38Z</time>
      </trkpt>
      <trkpt lat="43.81834" lon="0.5916">
        <ele>152.5</ele>
        <time>2015-02-27T18:53:35Z</time>
      </trkpt>
      <trkpt lat="43.81846" lon="0.59345">
        <ele>156</ele>
        <time>2015-02-27T18:55:43Z</time>
      </trkpt>
      <trkpt lat="43.81849" lon="0.59497">
        <ele>158.6</ele>
        <time>2015-02-27T18:57:27Z</time>
      </trkpt>
      <trkpt lat="43.8208" lon="0.59505">
        <ele>160.5</ele>
        <time>2015-02-27T19:01:07Z</time>
      </trkpt>
      <trkpt lat="43.82034" lon="0.59741">
        <ele>161.7</ele>
        <time>2015-02-27T19:03:55Z</time>
      </trkpt>
      <trkpt lat="43.82013" lon="0.59962">
        <ele>160.9</ele>
        <time>2015-02-27T19:06:28Z</time>
      </trkpt>
      <trkpt lat="43.81981" lon="0.60108">
        <ele>159.5</ele>
        <time>2015-02-27T19:08:13Z</time>
      </trkpt>
      <trkpt lat="43.82003" lon="0.6011">
        <ele>158.4</ele>
        <time>2015-02-27T19:08:35Z</time>
      </trkpt>
      <trkpt lat="43.82121" lon="0.60511">
        <ele>157.8</ele>
        <time>2015-02-27T19:13:31Z</time>
      </trkpt>
      <trkpt lat="43.82203" lon="0.60675">
        <ele>156.4</ele>
        <time>2015-02-27T19:15:48Z</time>
      </trkpt>
      <trkpt lat="43.82692" lon="0.60151">
        <ele>155.1</ele>
        <time>2015-02-27T19:25:37Z</time>
      </trkpt>
      <trkpt lat="43.82953" lon="0.60014">
        <ele>153.5</ele>
        <time>2015-02-27T19:30:03Z</time>
      </trkpt>
      <trkpt lat="43.82918" lon="0.59802">
        <ele>152</ele>
        <time>2015-02-27T19:32:33Z</time>
      </trkpt>
      <trkpt lat="43.82924" lon="0.59755">
        <ele>150.5</ele>
        <time>2015-02-27T19:33:05Z</time>
      </trkpt>
      <trkpt lat="43.82896" lon="0.5956">
        <ele>148</ele>
        <time>2015-02-27T19:35:22Z</time>
      </trkpt>
      <trkpt lat="43.82962" lon="0.59504">
        <ele>146.5</ele>
        <time>2015-02-27T19:36:35Z</time>
      </trkpt>
      <trkpt lat="43.82962" lon="0.5947">
        <ele>149</ele>
        <time>2015-02-27T19:36:59Z</time>
      </trkpt>
      <trkpt lat="43.82985" lon="0.59382">
        <ele>151.9</ele>
        <time>2015-02-27T19:38:03Z</time>
      </trkpt>
      <trkpt lat="43.82983" lon="0.59331">
        <ele>154.5</ele>
        <time>2015-02-27T19:38:38Z</time>
      </trkpt>
      <trkpt lat="43.82646" lon="0.59218">
        <ele>156.4</ele>
        <time>2015-02-27T19:44:09Z</time>
      </trkpt>
      <trkpt lat="43.82731" lon="0.58742">
        <ele>157.8</ele>
        <time>2015-02-27T19:49:45Z</time>
      </trkpt>
      <trkpt lat="43.82364" lon="0.58616">
        <ele>159.5</ele>
        <time>2015-02-27T19:55:45Z</time>
      </trkpt>
      <trkpt lat="43.82363" lon="0.58616">
        <ele>161.1</ele>
        <time>2015-02-27T19:55:46Z</time>
      </trkpt>
      <trkpt lat="43.82377" lon="0.58592">
        <ele>162.3</ele>
        <time>2015-02-27T19:56:07Z</time>
      </trkpt>
      <trkpt lat="43.82505" lon="0.58409">
        <ele>162.9</ele>
        <time>2015-02-27T19:59:02Z</time>
      </trkpt>
      <trkpt lat="43.82513" lon="0.58391">
        <ele>165.7</ele>
        <time>2015-02-27T19:59:16Z</time>
      </trkpt>
      <trkpt lat="43.82517" lon="0.58381">
        <ele>168.1</ele>
        <time>2015-02-27T19:59:24Z</time>
      </trkpt>
      <trkpt lat="43.82522" lon="0.58362">
        <ele>168.1</ele>
        <time>2015-02-27T19:59:38Z</time>
      </trkpt>
      <trkpt lat="43.82528" lon="0.58333">
        <ele>168.2</ele>
        <time>2015-02-27T20:00:00Z</time>
      </trkpt>
    </trkseg>
  </trk>
</gpx>